<?xml version="1.0" encoding="UTF-8" standalone="no" ?>
<gpx xmlns="http://www.topografix.com/GPX/1/1" xmlns:xsi="http://www.w3.org/2001/XMLSchema-instance" xsi:schemaLocation="http://www.topografix.com/GPX/1/1 http://www.topografix.com/GPX/1/1/gpx.xsd" version="1.1" creator="VisuGPX - https://www.visugpx.com">
  <metadata>
    <name>reconnaissance du circuit de la Burthe le 31 06 2018</name>
    <desc><![CDATA[Reconnaissance du circuit de La Burthe AM le 31 06 2018]]></desc>
  </metadata>
  <trk>
    <name><![CDATA[Tracé 31 mai 2018 12:31:11 PM]]></name>
    <trkseg>
      <trkpt lat="44.83362" lon="-0.50446">
        <ele>11.6</ele>
        <time>2018-05-31T10:31:11Z</time>
      </trkpt>
      <trkpt lat="44.83362" lon="-0.50446">
        <ele>11.6</ele>
        <time>2018-05-31T10:31:15Z</time>
      </trkpt>
      <trkpt lat="44.83377" lon="-0.50432">
        <ele>11.5</ele>
        <time>2018-05-31T10:31:22Z</time>
      </trkpt>
      <trkpt lat="44.83369" lon="-0.50437">
        <ele>11.5</ele>
        <time>2018-05-31T10:31:34Z</time>
      </trkpt>
      <trkpt lat="44.83362" lon="-0.50443">
        <ele>11.5</ele>
        <time>2018-05-31T10:31:47Z</time>
      </trkpt>
      <trkpt lat="44.83359" lon="-0.50454">
        <ele>11.5</ele>
        <time>2018-05-31T10:31:55Z</time>
      </trkpt>
      <trkpt lat="44.83357" lon="-0.50466">
        <ele>11.5</ele>
        <time>2018-05-31T10:32:04Z</time>
      </trkpt>
      <trkpt lat="44.83355" lon="-0.50478">
        <ele>11.4</ele>
        <time>2018-05-31T10:32:12Z</time>
      </trkpt>
      <trkpt lat="44.83356" lon="-0.5049">
        <ele>11.3</ele>
        <time>2018-05-31T10:32:21Z</time>
      </trkpt>
      <trkpt lat="44.83357" lon="-0.50502">
        <ele>11.1</ele>
        <time>2018-05-31T10:32:29Z</time>
      </trkpt>
      <trkpt lat="44.83359" lon="-0.50514">
        <ele>10.9</ele>
        <time>2018-05-31T10:32:37Z</time>
      </trkpt>
      <trkpt lat="44.83363" lon="-0.50525">
        <ele>10.6</ele>
        <time>2018-05-31T10:32:47Z</time>
      </trkpt>
      <trkpt lat="44.83368" lon="-0.50535">
        <ele>10.4</ele>
        <time>2018-05-31T10:32:56Z</time>
      </trkpt>
      <trkpt lat="44.83369" lon="-0.50547">
        <ele>10</ele>
        <time>2018-05-31T10:33:04Z</time>
      </trkpt>
      <trkpt lat="44.83373" lon="-0.50558">
        <ele>9.3</ele>
        <time>2018-05-31T10:33:17Z</time>
      </trkpt>
      <trkpt lat="44.83374" lon="-0.5057">
        <ele>8.9</ele>
        <time>2018-05-31T10:33:26Z</time>
      </trkpt>
      <trkpt lat="44.83375" lon="-0.50581">
        <ele>8</ele>
        <time>2018-05-31T10:33:35Z</time>
      </trkpt>
      <trkpt lat="44.83379" lon="-0.50592">
        <ele>7</ele>
        <time>2018-05-31T10:33:47Z</time>
      </trkpt>
      <trkpt lat="44.83382" lon="-0.50604">
        <ele>6.9</ele>
        <time>2018-05-31T10:33:56Z</time>
      </trkpt>
      <trkpt lat="44.83388" lon="-0.50613">
        <ele>5.9</ele>
        <time>2018-05-31T10:34:07Z</time>
      </trkpt>
      <trkpt lat="44.8339" lon="-0.50625">
        <ele>4.7</ele>
        <time>2018-05-31T10:34:18Z</time>
      </trkpt>
      <trkpt lat="44.83388" lon="-0.50636">
        <ele>4</ele>
        <time>2018-05-31T10:34:25Z</time>
      </trkpt>
      <trkpt lat="44.83383" lon="-0.50647">
        <ele>2.9</ele>
        <time>2018-05-31T10:34:34Z</time>
      </trkpt>
      <trkpt lat="44.83375" lon="-0.50651">
        <ele>1.9</ele>
        <time>2018-05-31T10:34:44Z</time>
      </trkpt>
      <trkpt lat="44.83367" lon="-0.50654">
        <ele>1</ele>
        <time>2018-05-31T10:34:53Z</time>
      </trkpt>
      <trkpt lat="44.83359" lon="-0.50658">
        <ele>67.9</ele>
        <time>2018-05-31T10:35:03Z</time>
      </trkpt>
      <trkpt lat="44.83351" lon="-0.50663">
        <ele>-1.1</ele>
        <time>2018-05-31T10:35:13Z</time>
      </trkpt>
      <trkpt lat="44.83344" lon="-0.50668">
        <ele>-1.7</ele>
        <time>2018-05-31T10:35:18Z</time>
      </trkpt>
      <trkpt lat="44.83337" lon="-0.50674">
        <ele>-2.3</ele>
        <time>2018-05-31T10:35:23Z</time>
      </trkpt>
      <trkpt lat="44.83328" lon="-0.50675">
        <ele>-2.8</ele>
        <time>2018-05-31T10:35:29Z</time>
      </trkpt>
      <trkpt lat="44.8332" lon="-0.50679">
        <ele>-2.9</ele>
        <time>2018-05-31T10:35:36Z</time>
      </trkpt>
      <trkpt lat="44.83313" lon="-0.50685">
        <ele>-2</ele>
        <time>2018-05-31T10:35:43Z</time>
      </trkpt>
      <trkpt lat="44.83305" lon="-0.50688">
        <ele>-1.8</ele>
        <time>2018-05-31T10:35:50Z</time>
      </trkpt>
      <trkpt lat="44.83296" lon="-0.50691">
        <ele>-1</ele>
        <time>2018-05-31T10:35:57Z</time>
      </trkpt>
      <trkpt lat="44.83289" lon="-0.50696">
        <ele>-0.1</ele>
        <time>2018-05-31T10:36:04Z</time>
      </trkpt>
      <trkpt lat="44.83282" lon="-0.50702">
        <ele>0.8</ele>
        <time>2018-05-31T10:36:12Z</time>
      </trkpt>
      <trkpt lat="44.83276" lon="-0.50709">
        <ele>1.8</ele>
        <time>2018-05-31T10:36:19Z</time>
      </trkpt>
      <trkpt lat="44.83268" lon="-0.50713">
        <ele>2.1</ele>
        <time>2018-05-31T10:36:26Z</time>
      </trkpt>
      <trkpt lat="44.8326" lon="-0.50718">
        <ele>2.8</ele>
        <time>2018-05-31T10:36:34Z</time>
      </trkpt>
      <trkpt lat="44.83252" lon="-0.50724">
        <ele>3.1</ele>
        <time>2018-05-31T10:36:41Z</time>
      </trkpt>
      <trkpt lat="44.83245" lon="-0.50727">
        <ele>3.1</ele>
        <time>2018-05-31T10:36:46Z</time>
      </trkpt>
      <trkpt lat="44.83238" lon="-0.50733">
        <ele>3.4</ele>
        <time>2018-05-31T10:36:52Z</time>
      </trkpt>
      <trkpt lat="44.8323" lon="-0.50739">
        <ele>2.9</ele>
        <time>2018-05-31T10:37:00Z</time>
      </trkpt>
      <trkpt lat="44.83222" lon="-0.50745">
        <ele>5.4</ele>
        <time>2018-05-31T10:37:07Z</time>
      </trkpt>
      <trkpt lat="44.83215" lon="-0.50749">
        <ele>3.8</ele>
        <time>2018-05-31T10:37:12Z</time>
      </trkpt>
      <trkpt lat="44.83207" lon="-0.50756">
        <ele>2.1</ele>
        <time>2018-05-31T10:37:19Z</time>
      </trkpt>
      <trkpt lat="44.83203" lon="-0.50765">
        <ele>4.4</ele>
        <time>2018-05-31T10:37:28Z</time>
      </trkpt>
      <trkpt lat="44.83197" lon="-0.50774">
        <ele>3.5</ele>
        <time>2018-05-31T10:37:35Z</time>
      </trkpt>
      <trkpt lat="44.8319" lon="-0.50779">
        <ele>3.7</ele>
        <time>2018-05-31T10:37:41Z</time>
      </trkpt>
      <trkpt lat="44.83184" lon="-0.50787">
        <ele>2.2</ele>
        <time>2018-05-31T10:37:48Z</time>
      </trkpt>
      <trkpt lat="44.83177" lon="-0.50794">
        <ele>2.1</ele>
        <time>2018-05-31T10:37:55Z</time>
      </trkpt>
      <trkpt lat="44.83168" lon="-0.50796">
        <ele>2.8</ele>
        <time>2018-05-31T10:38:02Z</time>
      </trkpt>
      <trkpt lat="44.83161" lon="-0.50804">
        <ele>1.2</ele>
        <time>2018-05-31T10:38:10Z</time>
      </trkpt>
      <trkpt lat="44.83156" lon="-0.50811">
        <ele>1.8</ele>
        <time>2018-05-31T10:38:16Z</time>
      </trkpt>
      <trkpt lat="44.83149" lon="-0.50817">
        <ele>-4.2</ele>
        <time>2018-05-31T10:38:22Z</time>
      </trkpt>
      <trkpt lat="44.83143" lon="-0.50826">
        <ele>-7.1</ele>
        <time>2018-05-31T10:38:30Z</time>
      </trkpt>
      <trkpt lat="44.83138" lon="-0.50835">
        <ele>-9.8</ele>
        <time>2018-05-31T10:38:40Z</time>
      </trkpt>
      <trkpt lat="44.83132" lon="-0.50842">
        <ele>-14.3</ele>
        <time>2018-05-31T10:38:47Z</time>
      </trkpt>
      <trkpt lat="44.83127" lon="-0.50852">
        <ele>-17.5</ele>
        <time>2018-05-31T10:38:54Z</time>
      </trkpt>
      <trkpt lat="44.83128" lon="-0.50864">
        <ele>-18.3</ele>
        <time>2018-05-31T10:39:07Z</time>
      </trkpt>
      <trkpt lat="44.83135" lon="-0.50872">
        <ele>-11.8</ele>
        <time>2018-05-31T10:39:15Z</time>
      </trkpt>
      <trkpt lat="44.8314" lon="-0.50883">
        <ele>-13.4</ele>
        <time>2018-05-31T10:39:29Z</time>
      </trkpt>
      <trkpt lat="44.83139" lon="-0.50895">
        <ele>-13.6</ele>
        <time>2018-05-31T10:39:38Z</time>
      </trkpt>
      <trkpt lat="44.8314" lon="-0.50906">
        <ele>-14.6</ele>
        <time>2018-05-31T10:39:50Z</time>
      </trkpt>
      <trkpt lat="44.83141" lon="-0.50918">
        <ele>-9.5</ele>
        <time>2018-05-31T10:40:00Z</time>
      </trkpt>
      <trkpt lat="44.83135" lon="-0.50928">
        <ele>-8.9</ele>
        <time>2018-05-31T10:40:09Z</time>
      </trkpt>
      <trkpt lat="44.83129" lon="-0.50936">
        <ele>-5.1</ele>
        <time>2018-05-31T10:40:19Z</time>
      </trkpt>
      <trkpt lat="44.83121" lon="-0.50941">
        <ele>-0.9</ele>
        <time>2018-05-31T10:40:28Z</time>
      </trkpt>
      <trkpt lat="44.83113" lon="-0.50944">
        <ele>0.5</ele>
        <time>2018-05-31T10:40:38Z</time>
      </trkpt>
      <trkpt lat="44.83104" lon="-0.50945">
        <ele>-28.7</ele>
        <time>2018-05-31T10:40:52Z</time>
      </trkpt>
      <trkpt lat="44.83095" lon="-0.50944">
        <ele>-55.2</ele>
        <time>2018-05-31T10:41:05Z</time>
      </trkpt>
      <trkpt lat="44.83087" lon="-0.50945">
        <ele>-53.9</ele>
        <time>2018-05-31T10:41:12Z</time>
      </trkpt>
      <trkpt lat="44.8308" lon="-0.50951">
        <ele>-48.2</ele>
        <time>2018-05-31T10:41:18Z</time>
      </trkpt>
      <trkpt lat="44.83073" lon="-0.50958">
        <ele>-39.2</ele>
        <time>2018-05-31T10:41:25Z</time>
      </trkpt>
      <trkpt lat="44.83066" lon="-0.50965">
        <ele>-34.7</ele>
        <time>2018-05-31T10:41:32Z</time>
      </trkpt>
      <trkpt lat="44.83059" lon="-0.50969">
        <ele>-32.6</ele>
        <time>2018-05-31T10:41:37Z</time>
      </trkpt>
      <trkpt lat="44.83051" lon="-0.50975">
        <ele>-29.7</ele>
        <time>2018-05-31T10:41:42Z</time>
      </trkpt>
      <trkpt lat="44.83044" lon="-0.50979">
        <ele>-25</ele>
        <time>2018-05-31T10:41:48Z</time>
      </trkpt>
      <trkpt lat="44.83038" lon="-0.50987">
        <ele>-25.5</ele>
        <time>2018-05-31T10:41:54Z</time>
      </trkpt>
      <trkpt lat="44.83031" lon="-0.50993">
        <ele>-25.3</ele>
        <time>2018-05-31T10:42:01Z</time>
      </trkpt>
      <trkpt lat="44.83023" lon="-0.50997">
        <ele>-25.5</ele>
        <time>2018-05-31T10:42:07Z</time>
      </trkpt>
      <trkpt lat="44.83015" lon="-0.51001">
        <ele>-26.9</ele>
        <time>2018-05-31T10:42:15Z</time>
      </trkpt>
      <trkpt lat="44.83007" lon="-0.51004">
        <ele>-24</ele>
        <time>2018-05-31T10:42:24Z</time>
      </trkpt>
      <trkpt lat="44.82999" lon="-0.51006">
        <ele>-18.6</ele>
        <time>2018-05-31T10:42:34Z</time>
      </trkpt>
      <trkpt lat="44.8299" lon="-0.51007">
        <ele>-15.6</ele>
        <time>2018-05-31T10:42:42Z</time>
      </trkpt>
      <trkpt lat="44.82983" lon="-0.51002">
        <ele>-37.9</ele>
        <time>2018-05-31T10:42:49Z</time>
      </trkpt>
      <trkpt lat="44.82975" lon="-0.50999">
        <ele>-50.8</ele>
        <time>2018-05-31T10:42:56Z</time>
      </trkpt>
      <trkpt lat="44.82967" lon="-0.51002">
        <ele>-57.3</ele>
        <time>2018-05-31T10:43:02Z</time>
      </trkpt>
      <trkpt lat="44.8296" lon="-0.51008">
        <ele>-54.1</ele>
        <time>2018-05-31T10:43:12Z</time>
      </trkpt>
      <trkpt lat="44.82949" lon="-0.5101">
        <ele>-52.4</ele>
        <time>2018-05-31T10:43:17Z</time>
      </trkpt>
      <trkpt lat="44.82941" lon="-0.51009">
        <ele>-47.6</ele>
        <time>2018-05-31T10:43:23Z</time>
      </trkpt>
      <trkpt lat="44.82934" lon="-0.51014">
        <ele>-38.2</ele>
        <time>2018-05-31T10:43:31Z</time>
      </trkpt>
      <trkpt lat="44.82928" lon="-0.51022">
        <ele>-38.9</ele>
        <time>2018-05-31T10:43:36Z</time>
      </trkpt>
      <trkpt lat="44.82928" lon="-0.51033">
        <ele>-34.6</ele>
        <time>2018-05-31T10:43:41Z</time>
      </trkpt>
      <trkpt lat="44.82925" lon="-0.51043">
        <ele>-36.1</ele>
        <time>2018-05-31T10:43:47Z</time>
      </trkpt>
      <trkpt lat="44.82922" lon="-0.51055">
        <ele>-44.7</ele>
        <time>2018-05-31T10:43:54Z</time>
      </trkpt>
      <trkpt lat="44.82921" lon="-0.51066">
        <ele>-41.9</ele>
        <time>2018-05-31T10:43:59Z</time>
      </trkpt>
      <trkpt lat="44.82922" lon="-0.51078">
        <ele>-39.8</ele>
        <time>2018-05-31T10:44:04Z</time>
      </trkpt>
      <trkpt lat="44.82925" lon="-0.51089">
        <ele>-38.7</ele>
        <time>2018-05-31T10:44:11Z</time>
      </trkpt>
      <trkpt lat="44.82923" lon="-0.51098">
        <ele>-40</ele>
        <time>2018-05-31T10:44:29Z</time>
      </trkpt>
      <trkpt lat="44.82919" lon="-0.51103">
        <ele>-33.4</ele>
        <time>2018-05-31T10:44:36Z</time>
      </trkpt>
      <trkpt lat="44.82908" lon="-0.51102">
        <ele>-38.2</ele>
        <time>2018-05-31T10:44:41Z</time>
      </trkpt>
      <trkpt lat="44.82907" lon="-0.51114">
        <ele>-50.6</ele>
        <time>2018-05-31T10:45:15Z</time>
      </trkpt>
      <trkpt lat="44.82912" lon="-0.51124">
        <ele>-49.6</ele>
        <time>2018-05-31T10:45:24Z</time>
      </trkpt>
      <trkpt lat="44.82914" lon="-0.51136">
        <ele>-46.9</ele>
        <time>2018-05-31T10:45:34Z</time>
      </trkpt>
      <trkpt lat="44.82911" lon="-0.51147">
        <ele>-58</ele>
        <time>2018-05-31T10:45:50Z</time>
      </trkpt>
      <trkpt lat="44.82907" lon="-0.51158">
        <ele>-61.3</ele>
        <time>2018-05-31T10:46:00Z</time>
      </trkpt>
      <trkpt lat="44.82903" lon="-0.51168">
        <ele>-64.8</ele>
        <time>2018-05-31T10:46:05Z</time>
      </trkpt>
      <trkpt lat="44.82902" lon="-0.51179">
        <ele>-63.5</ele>
        <time>2018-05-31T10:46:09Z</time>
      </trkpt>
      <trkpt lat="44.82899" lon="-0.51188">
        <ele>-61</ele>
        <time>2018-05-31T10:46:14Z</time>
      </trkpt>
      <trkpt lat="44.82895" lon="-0.51199">
        <ele>-59.7</ele>
        <time>2018-05-31T10:46:19Z</time>
      </trkpt>
      <trkpt lat="44.82894" lon="-0.51211">
        <ele>-54.8</ele>
        <time>2018-05-31T10:46:28Z</time>
      </trkpt>
      <trkpt lat="44.82889" lon="-0.51222">
        <ele>-47.9</ele>
        <time>2018-05-31T10:46:37Z</time>
      </trkpt>
      <trkpt lat="44.82891" lon="-0.51234">
        <ele>-46.3</ele>
        <time>2018-05-31T10:46:43Z</time>
      </trkpt>
      <trkpt lat="44.82892" lon="-0.51246">
        <ele>-41.2</ele>
        <time>2018-05-31T10:46:52Z</time>
      </trkpt>
      <trkpt lat="44.82888" lon="-0.51257">
        <ele>-35.5</ele>
        <time>2018-05-31T10:47:01Z</time>
      </trkpt>
      <trkpt lat="44.82885" lon="-0.51268">
        <ele>-28.2</ele>
        <time>2018-05-31T10:47:10Z</time>
      </trkpt>
      <trkpt lat="44.82882" lon="-0.51279">
        <ele>-21.6</ele>
        <time>2018-05-31T10:47:20Z</time>
      </trkpt>
      <trkpt lat="44.82875" lon="-0.51288">
        <ele>-22.8</ele>
        <time>2018-05-31T10:47:27Z</time>
      </trkpt>
      <trkpt lat="44.82877" lon="-0.513">
        <ele>-24.2</ele>
        <time>2018-05-31T10:47:33Z</time>
      </trkpt>
      <trkpt lat="44.82875" lon="-0.51311">
        <ele>-21.6</ele>
        <time>2018-05-31T10:47:40Z</time>
      </trkpt>
      <trkpt lat="44.82869" lon="-0.51316">
        <ele>-17.5</ele>
        <time>2018-05-31T10:47:51Z</time>
      </trkpt>
      <trkpt lat="44.8286" lon="-0.51317">
        <ele>-16.7</ele>
        <time>2018-05-31T10:48:00Z</time>
      </trkpt>
      <trkpt lat="44.82852" lon="-0.51318">
        <ele>-15.3</ele>
        <time>2018-05-31T10:48:06Z</time>
      </trkpt>
      <trkpt lat="44.82845" lon="-0.5132">
        <ele>-16.1</ele>
        <time>2018-05-31T10:48:16Z</time>
      </trkpt>
      <trkpt lat="44.82837" lon="-0.51323">
        <ele>-17.4</ele>
        <time>2018-05-31T10:48:23Z</time>
      </trkpt>
      <trkpt lat="44.8283" lon="-0.51328">
        <ele>-13.9</ele>
        <time>2018-05-31T10:48:34Z</time>
      </trkpt>
      <trkpt lat="44.82824" lon="-0.51337">
        <ele>-7.1</ele>
        <time>2018-05-31T10:48:55Z</time>
      </trkpt>
      <trkpt lat="44.82816" lon="-0.51343">
        <ele>-5.5</ele>
        <time>2018-05-31T10:49:01Z</time>
      </trkpt>
      <trkpt lat="44.82808" lon="-0.51346">
        <ele>-8</ele>
        <time>2018-05-31T10:49:10Z</time>
      </trkpt>
      <trkpt lat="44.828" lon="-0.51349">
        <ele>-11.1</ele>
        <time>2018-05-31T10:49:19Z</time>
      </trkpt>
      <trkpt lat="44.82792" lon="-0.51351">
        <ele>-15.2</ele>
        <time>2018-05-31T10:49:29Z</time>
      </trkpt>
      <trkpt lat="44.82786" lon="-0.51359">
        <ele>-9.3</ele>
        <time>2018-05-31T10:49:39Z</time>
      </trkpt>
      <trkpt lat="44.82779" lon="-0.51366">
        <ele>-13.9</ele>
        <time>2018-05-31T10:51:05Z</time>
      </trkpt>
      <trkpt lat="44.82772" lon="-0.51373">
        <ele>-12.1</ele>
        <time>2018-05-31T10:51:12Z</time>
      </trkpt>
      <trkpt lat="44.82765" lon="-0.5138">
        <ele>-8.7</ele>
        <time>2018-05-31T10:51:18Z</time>
      </trkpt>
      <trkpt lat="44.82758" lon="-0.51385">
        <ele>-10.2</ele>
        <time>2018-05-31T10:51:24Z</time>
      </trkpt>
      <trkpt lat="44.82751" lon="-0.51391">
        <ele>-9</ele>
        <time>2018-05-31T10:51:32Z</time>
      </trkpt>
      <trkpt lat="44.82743" lon="-0.51396">
        <ele>-7.4</ele>
        <time>2018-05-31T10:51:39Z</time>
      </trkpt>
      <trkpt lat="44.82737" lon="-0.51404">
        <ele>1.7</ele>
        <time>2018-05-31T10:51:51Z</time>
      </trkpt>
      <trkpt lat="44.8273" lon="-0.51409">
        <ele>2.9</ele>
        <time>2018-05-31T10:51:59Z</time>
      </trkpt>
      <trkpt lat="44.82722" lon="-0.51412">
        <ele>4.8</ele>
        <time>2018-05-31T10:52:07Z</time>
      </trkpt>
      <trkpt lat="44.82714" lon="-0.51417">
        <ele>6.4</ele>
        <time>2018-05-31T10:52:17Z</time>
      </trkpt>
      <trkpt lat="44.82707" lon="-0.51424">
        <ele>5.5</ele>
        <time>2018-05-31T10:52:25Z</time>
      </trkpt>
      <trkpt lat="44.827" lon="-0.5143">
        <ele>6.7</ele>
        <time>2018-05-31T10:52:35Z</time>
      </trkpt>
      <trkpt lat="44.82693" lon="-0.51437">
        <ele>7.2</ele>
        <time>2018-05-31T10:52:44Z</time>
      </trkpt>
      <trkpt lat="44.82686" lon="-0.51444">
        <ele>5.7</ele>
        <time>2018-05-31T10:52:51Z</time>
      </trkpt>
      <trkpt lat="44.8268" lon="-0.51453">
        <ele>2.8</ele>
        <time>2018-05-31T10:52:59Z</time>
      </trkpt>
      <trkpt lat="44.82672" lon="-0.51458">
        <ele>0.8</ele>
        <time>2018-05-31T10:53:07Z</time>
      </trkpt>
      <trkpt lat="44.82665" lon="-0.51465">
        <ele>-0.7</ele>
        <time>2018-05-31T10:53:15Z</time>
      </trkpt>
      <trkpt lat="44.82659" lon="-0.51474">
        <ele>-0.2</ele>
        <time>2018-05-31T10:53:22Z</time>
      </trkpt>
      <trkpt lat="44.82663" lon="-0.51484">
        <ele>2.4</ele>
        <time>2018-05-31T10:53:30Z</time>
      </trkpt>
      <trkpt lat="44.82668" lon="-0.51493">
        <ele>2.7</ele>
        <time>2018-05-31T10:53:37Z</time>
      </trkpt>
      <trkpt lat="44.82673" lon="-0.51502">
        <ele>-0.5</ele>
        <time>2018-05-31T10:53:44Z</time>
      </trkpt>
      <trkpt lat="44.82676" lon="-0.51514">
        <ele>-0.4</ele>
        <time>2018-05-31T10:53:51Z</time>
      </trkpt>
      <trkpt lat="44.82676" lon="-0.51526">
        <ele>-2.2</ele>
        <time>2018-05-31T10:53:58Z</time>
      </trkpt>
      <trkpt lat="44.82682" lon="-0.51535">
        <ele>-3.4</ele>
        <time>2018-05-31T10:54:04Z</time>
      </trkpt>
      <trkpt lat="44.82687" lon="-0.51544">
        <ele>-3.2</ele>
        <time>2018-05-31T10:54:10Z</time>
      </trkpt>
      <trkpt lat="44.82692" lon="-0.51552">
        <ele>-3.8</ele>
        <time>2018-05-31T10:54:15Z</time>
      </trkpt>
      <trkpt lat="44.82697" lon="-0.51563">
        <ele>-3.3</ele>
        <time>2018-05-31T10:54:22Z</time>
      </trkpt>
      <trkpt lat="44.82701" lon="-0.51574">
        <ele>-2.2</ele>
        <time>2018-05-31T10:54:30Z</time>
      </trkpt>
      <trkpt lat="44.82703" lon="-0.51585">
        <ele>-0.1</ele>
        <time>2018-05-31T10:54:38Z</time>
      </trkpt>
      <trkpt lat="44.82704" lon="-0.51598">
        <ele>0.6</ele>
        <time>2018-05-31T10:54:46Z</time>
      </trkpt>
      <trkpt lat="44.82708" lon="-0.51609">
        <ele>0.6</ele>
        <time>2018-05-31T10:54:53Z</time>
      </trkpt>
      <trkpt lat="44.82711" lon="-0.51619">
        <ele>1.3</ele>
        <time>2018-05-31T10:55:01Z</time>
      </trkpt>
      <trkpt lat="44.82717" lon="-0.51627">
        <ele>-2.2</ele>
        <time>2018-05-31T10:55:08Z</time>
      </trkpt>
      <trkpt lat="44.82722" lon="-0.51637">
        <ele>-11.4</ele>
        <time>2018-05-31T10:55:16Z</time>
      </trkpt>
      <trkpt lat="44.82728" lon="-0.51645">
        <ele>-20.7</ele>
        <time>2018-05-31T10:55:24Z</time>
      </trkpt>
      <trkpt lat="44.82735" lon="-0.51651">
        <ele>-24.3</ele>
        <time>2018-05-31T10:55:30Z</time>
      </trkpt>
      <trkpt lat="44.82742" lon="-0.51659">
        <ele>-15.7</ele>
        <time>2018-05-31T10:55:49Z</time>
      </trkpt>
      <trkpt lat="44.82747" lon="-0.51668">
        <ele>-10.5</ele>
        <time>2018-05-31T10:55:57Z</time>
      </trkpt>
      <trkpt lat="44.8275" lon="-0.51679">
        <ele>-4.6</ele>
        <time>2018-05-31T10:56:04Z</time>
      </trkpt>
      <trkpt lat="44.82758" lon="-0.51684">
        <ele>-5.8</ele>
        <time>2018-05-31T10:56:10Z</time>
      </trkpt>
      <trkpt lat="44.82764" lon="-0.51692">
        <ele>-0.7</ele>
        <time>2018-05-31T10:56:17Z</time>
      </trkpt>
      <trkpt lat="44.82769" lon="-0.51702">
        <ele>1.7</ele>
        <time>2018-05-31T10:56:24Z</time>
      </trkpt>
      <trkpt lat="44.82775" lon="-0.5171">
        <ele>8.5</ele>
        <time>2018-05-31T10:56:31Z</time>
      </trkpt>
      <trkpt lat="44.82783" lon="-0.51713">
        <ele>11.5</ele>
        <time>2018-05-31T10:56:37Z</time>
      </trkpt>
      <trkpt lat="44.8279" lon="-0.51717">
        <ele>10.2</ele>
        <time>2018-05-31T10:56:43Z</time>
      </trkpt>
      <trkpt lat="44.82798" lon="-0.51719">
        <ele>4.8</ele>
        <time>2018-05-31T10:56:50Z</time>
      </trkpt>
      <trkpt lat="44.82805" lon="-0.51726">
        <ele>-2</ele>
        <time>2018-05-31T10:56:57Z</time>
      </trkpt>
      <trkpt lat="44.8281" lon="-0.51735">
        <ele>-7.6</ele>
        <time>2018-05-31T10:57:03Z</time>
      </trkpt>
      <trkpt lat="44.82809" lon="-0.51747">
        <ele>-8</ele>
        <time>2018-05-31T10:57:08Z</time>
      </trkpt>
      <trkpt lat="44.82812" lon="-0.51759">
        <ele>-7.7</ele>
        <time>2018-05-31T10:57:14Z</time>
      </trkpt>
      <trkpt lat="44.82816" lon="-0.51768">
        <ele>-4.4</ele>
        <time>2018-05-31T10:57:21Z</time>
      </trkpt>
      <trkpt lat="44.82819" lon="-0.51779">
        <ele>-5.7</ele>
        <time>2018-05-31T10:57:28Z</time>
      </trkpt>
      <trkpt lat="44.82823" lon="-0.51789">
        <ele>-1.4</ele>
        <time>2018-05-31T10:57:37Z</time>
      </trkpt>
      <trkpt lat="44.82832" lon="-0.51789">
        <ele>3.9</ele>
        <time>2018-05-31T10:57:50Z</time>
      </trkpt>
      <trkpt lat="44.82838" lon="-0.51781">
        <ele>4.9</ele>
        <time>2018-05-31T10:57:57Z</time>
      </trkpt>
      <trkpt lat="44.82844" lon="-0.51772">
        <ele>7.3</ele>
        <time>2018-05-31T10:58:05Z</time>
      </trkpt>
      <trkpt lat="44.8285" lon="-0.51765">
        <ele>9.7</ele>
        <time>2018-05-31T10:58:12Z</time>
      </trkpt>
      <trkpt lat="44.82857" lon="-0.51757">
        <ele>10.2</ele>
        <time>2018-05-31T10:58:19Z</time>
      </trkpt>
      <trkpt lat="44.82864" lon="-0.5175">
        <ele>9</ele>
        <time>2018-05-31T10:58:25Z</time>
      </trkpt>
      <trkpt lat="44.8287" lon="-0.51743">
        <ele>8.2</ele>
        <time>2018-05-31T10:58:33Z</time>
      </trkpt>
      <trkpt lat="44.82878" lon="-0.51739">
        <ele>7.3</ele>
        <time>2018-05-31T10:58:40Z</time>
      </trkpt>
      <trkpt lat="44.82886" lon="-0.51733">
        <ele>7.5</ele>
        <time>2018-05-31T10:58:47Z</time>
      </trkpt>
      <trkpt lat="44.82893" lon="-0.51727">
        <ele>7.9</ele>
        <time>2018-05-31T10:58:54Z</time>
      </trkpt>
      <trkpt lat="44.829" lon="-0.51721">
        <ele>6.7</ele>
        <time>2018-05-31T10:59:01Z</time>
      </trkpt>
      <trkpt lat="44.82907" lon="-0.51716">
        <ele>5.8</ele>
        <time>2018-05-31T10:59:07Z</time>
      </trkpt>
      <trkpt lat="44.82914" lon="-0.51709">
        <ele>6.5</ele>
        <time>2018-05-31T10:59:14Z</time>
      </trkpt>
      <trkpt lat="44.82922" lon="-0.51704">
        <ele>6.6</ele>
        <time>2018-05-31T10:59:21Z</time>
      </trkpt>
      <trkpt lat="44.82929" lon="-0.51696">
        <ele>6.5</ele>
        <time>2018-05-31T10:59:29Z</time>
      </trkpt>
      <trkpt lat="44.82937" lon="-0.51692">
        <ele>4.2</ele>
        <time>2018-05-31T10:59:37Z</time>
      </trkpt>
      <trkpt lat="44.82945" lon="-0.51687">
        <ele>4.5</ele>
        <time>2018-05-31T10:59:44Z</time>
      </trkpt>
      <trkpt lat="44.82952" lon="-0.5168">
        <ele>4.3</ele>
        <time>2018-05-31T10:59:51Z</time>
      </trkpt>
      <trkpt lat="44.82959" lon="-0.51673">
        <ele>1.4</ele>
        <time>2018-05-31T11:00:01Z</time>
      </trkpt>
      <trkpt lat="44.82967" lon="-0.51668">
        <ele>0.6</ele>
        <time>2018-05-31T11:00:08Z</time>
      </trkpt>
      <trkpt lat="44.82974" lon="-0.51662">
        <ele>-1.1</ele>
        <time>2018-05-31T11:00:15Z</time>
      </trkpt>
      <trkpt lat="44.82981" lon="-0.51655">
        <ele>0.4</ele>
        <time>2018-05-31T11:00:21Z</time>
      </trkpt>
      <trkpt lat="44.82989" lon="-0.51651">
        <ele>3</ele>
        <time>2018-05-31T11:00:27Z</time>
      </trkpt>
      <trkpt lat="44.82997" lon="-0.5165">
        <ele>3.5</ele>
        <time>2018-05-31T11:00:32Z</time>
      </trkpt>
      <trkpt lat="44.83005" lon="-0.51647">
        <ele>1.3</ele>
        <time>2018-05-31T11:00:39Z</time>
      </trkpt>
      <trkpt lat="44.83013" lon="-0.51642">
        <ele>-0.2</ele>
        <time>2018-05-31T11:00:47Z</time>
      </trkpt>
      <trkpt lat="44.83019" lon="-0.51633">
        <ele>1.1</ele>
        <time>2018-05-31T11:00:54Z</time>
      </trkpt>
      <trkpt lat="44.83028" lon="-0.51633">
        <ele>-0.8</ele>
        <time>2018-05-31T11:01:10Z</time>
      </trkpt>
      <trkpt lat="44.83033" lon="-0.51641">
        <ele>-5</ele>
        <time>2018-05-31T11:01:17Z</time>
      </trkpt>
      <trkpt lat="44.83043" lon="-0.51645">
        <ele>-8.3</ele>
        <time>2018-05-31T11:01:22Z</time>
      </trkpt>
      <trkpt lat="44.83048" lon="-0.51655">
        <ele>-22.6</ele>
        <time>2018-05-31T11:01:38Z</time>
      </trkpt>
      <trkpt lat="44.83044" lon="-0.51665">
        <ele>-27.1</ele>
        <time>2018-05-31T11:01:46Z</time>
      </trkpt>
      <trkpt lat="44.83051" lon="-0.5167">
        <ele>-52.1</ele>
        <time>2018-05-31T11:01:57Z</time>
      </trkpt>
      <trkpt lat="44.83059" lon="-0.51673">
        <ele>-63.4</ele>
        <time>2018-05-31T11:02:03Z</time>
      </trkpt>
      <trkpt lat="44.83072" lon="-0.51683">
        <ele>-71.8</ele>
        <time>2018-05-31T11:02:08Z</time>
      </trkpt>
      <trkpt lat="44.83078" lon="-0.51693">
        <ele>-84.9</ele>
        <time>2018-05-31T11:02:22Z</time>
      </trkpt>
      <trkpt lat="44.83075" lon="-0.51703">
        <ele>-90</ele>
        <time>2018-05-31T11:02:29Z</time>
      </trkpt>
      <trkpt lat="44.83067" lon="-0.51707">
        <ele>-91.7</ele>
        <time>2018-05-31T11:02:33Z</time>
      </trkpt>
      <trkpt lat="44.83062" lon="-0.51718">
        <ele>-95.1</ele>
        <time>2018-05-31T11:02:38Z</time>
      </trkpt>
      <trkpt lat="44.8307" lon="-0.51724">
        <ele>-78.9</ele>
        <time>2018-05-31T11:02:44Z</time>
      </trkpt>
      <trkpt lat="44.83076" lon="-0.51736">
        <ele>-71.1</ele>
        <time>2018-05-31T11:02:49Z</time>
      </trkpt>
      <trkpt lat="44.83083" lon="-0.5174">
        <ele>-64.5</ele>
        <time>2018-05-31T11:02:53Z</time>
      </trkpt>
      <trkpt lat="44.83092" lon="-0.51744">
        <ele>-57.2</ele>
        <time>2018-05-31T11:02:57Z</time>
      </trkpt>
      <trkpt lat="44.831" lon="-0.5175">
        <ele>-49.6</ele>
        <time>2018-05-31T11:03:02Z</time>
      </trkpt>
      <trkpt lat="44.83107" lon="-0.51754">
        <ele>-42.3</ele>
        <time>2018-05-31T11:03:06Z</time>
      </trkpt>
      <trkpt lat="44.83117" lon="-0.5176">
        <ele>-36.6</ele>
        <time>2018-05-31T11:03:11Z</time>
      </trkpt>
      <trkpt lat="44.83127" lon="-0.51763">
        <ele>-31.1</ele>
        <time>2018-05-31T11:03:15Z</time>
      </trkpt>
      <trkpt lat="44.83134" lon="-0.51768">
        <ele>-27.5</ele>
        <time>2018-05-31T11:03:22Z</time>
      </trkpt>
      <trkpt lat="44.83141" lon="-0.51773">
        <ele>-22.5</ele>
        <time>2018-05-31T11:03:29Z</time>
      </trkpt>
      <trkpt lat="44.83148" lon="-0.51779">
        <ele>-16.3</ele>
        <time>2018-05-31T11:03:35Z</time>
      </trkpt>
      <trkpt lat="44.83155" lon="-0.51786">
        <ele>-14.7</ele>
        <time>2018-05-31T11:03:42Z</time>
      </trkpt>
      <trkpt lat="44.83161" lon="-0.51794">
        <ele>-13.6</ele>
        <time>2018-05-31T11:03:49Z</time>
      </trkpt>
      <trkpt lat="44.83169" lon="-0.51798">
        <ele>-9.1</ele>
        <time>2018-05-31T11:03:55Z</time>
      </trkpt>
      <trkpt lat="44.83176" lon="-0.51803">
        <ele>-8.1</ele>
        <time>2018-05-31T11:04:01Z</time>
      </trkpt>
      <trkpt lat="44.83181" lon="-0.51806">
        <ele>-7.8</ele>
        <time>2018-05-31T11:04:05Z</time>
      </trkpt>
      <trkpt lat="44.83191" lon="-0.51809">
        <ele>-5.5</ele>
        <time>2018-05-31T11:04:09Z</time>
      </trkpt>
      <trkpt lat="44.83194" lon="-0.5182">
        <ele>-9.4</ele>
        <time>2018-05-31T11:04:16Z</time>
      </trkpt>
      <trkpt lat="44.83195" lon="-0.51832">
        <ele>-10.8</ele>
        <time>2018-05-31T11:04:25Z</time>
      </trkpt>
      <trkpt lat="44.83195" lon="-0.51844">
        <ele>-12.2</ele>
        <time>2018-05-31T11:04:42Z</time>
      </trkpt>
      <trkpt lat="44.83197" lon="-0.51855">
        <ele>-14.2</ele>
        <time>2018-05-31T11:04:48Z</time>
      </trkpt>
      <trkpt lat="44.83196" lon="-0.51867">
        <ele>-12.5</ele>
        <time>2018-05-31T11:04:54Z</time>
      </trkpt>
      <trkpt lat="44.83194" lon="-0.51878">
        <ele>-11.7</ele>
        <time>2018-05-31T11:05:01Z</time>
      </trkpt>
      <trkpt lat="44.83192" lon="-0.51889">
        <ele>-14</ele>
        <time>2018-05-31T11:05:08Z</time>
      </trkpt>
      <trkpt lat="44.83188" lon="-0.51899">
        <ele>-14.7</ele>
        <time>2018-05-31T11:05:15Z</time>
      </trkpt>
      <trkpt lat="44.83187" lon="-0.51911">
        <ele>-11.4</ele>
        <time>2018-05-31T11:05:24Z</time>
      </trkpt>
      <trkpt lat="44.83193" lon="-0.5192">
        <ele>-13.6</ele>
        <time>2018-05-31T11:05:33Z</time>
      </trkpt>
      <trkpt lat="44.83196" lon="-0.51931">
        <ele>-10</ele>
        <time>2018-05-31T11:05:41Z</time>
      </trkpt>
      <trkpt lat="44.83204" lon="-0.51935">
        <ele>-10.3</ele>
        <time>2018-05-31T11:05:48Z</time>
      </trkpt>
      <trkpt lat="44.83212" lon="-0.51937">
        <ele>-12</ele>
        <time>2018-05-31T11:05:57Z</time>
      </trkpt>
      <trkpt lat="44.8322" lon="-0.51941">
        <ele>-13.9</ele>
        <time>2018-05-31T11:06:06Z</time>
      </trkpt>
      <trkpt lat="44.83228" lon="-0.51947">
        <ele>-15.5</ele>
        <time>2018-05-31T11:06:15Z</time>
      </trkpt>
      <trkpt lat="44.83236" lon="-0.51951">
        <ele>-17.2</ele>
        <time>2018-05-31T11:06:22Z</time>
      </trkpt>
      <trkpt lat="44.83244" lon="-0.51955">
        <ele>-20.5</ele>
        <time>2018-05-31T11:06:32Z</time>
      </trkpt>
      <trkpt lat="44.83251" lon="-0.51962">
        <ele>-21.2</ele>
        <time>2018-05-31T11:06:41Z</time>
      </trkpt>
      <trkpt lat="44.83258" lon="-0.51969">
        <ele>-22.7</ele>
        <time>2018-05-31T11:06:49Z</time>
      </trkpt>
      <trkpt lat="44.83264" lon="-0.51977">
        <ele>-24.6</ele>
        <time>2018-05-31T11:06:56Z</time>
      </trkpt>
      <trkpt lat="44.83272" lon="-0.5198">
        <ele>-25</ele>
        <time>2018-05-31T11:07:02Z</time>
      </trkpt>
      <trkpt lat="44.8328" lon="-0.51983">
        <ele>-25.1</ele>
        <time>2018-05-31T11:07:09Z</time>
      </trkpt>
      <trkpt lat="44.83289" lon="-0.51986">
        <ele>-22.4</ele>
        <time>2018-05-31T11:07:14Z</time>
      </trkpt>
      <trkpt lat="44.83297" lon="-0.51989">
        <ele>-21.2</ele>
        <time>2018-05-31T11:07:21Z</time>
      </trkpt>
      <trkpt lat="44.83304" lon="-0.51993">
        <ele>-18.3</ele>
        <time>2018-05-31T11:07:37Z</time>
      </trkpt>
      <trkpt lat="44.8331" lon="-0.51997">
        <ele>-16.6</ele>
        <time>2018-05-31T11:08:21Z</time>
      </trkpt>
      <trkpt lat="44.83316" lon="-0.52008">
        <ele>-24.2</ele>
        <time>2018-05-31T11:08:25Z</time>
      </trkpt>
      <trkpt lat="44.83321" lon="-0.52011">
        <ele>-27.3</ele>
        <time>2018-05-31T11:08:43Z</time>
      </trkpt>
      <trkpt lat="44.83329" lon="-0.52013">
        <ele>-33.9</ele>
        <time>2018-05-31T11:08:55Z</time>
      </trkpt>
      <trkpt lat="44.83338" lon="-0.52017">
        <ele>-36.8</ele>
        <time>2018-05-31T11:09:07Z</time>
      </trkpt>
      <trkpt lat="44.83344" lon="-0.52026">
        <ele>-36.5</ele>
        <time>2018-05-31T11:09:19Z</time>
      </trkpt>
      <trkpt lat="44.8335" lon="-0.52035">
        <ele>-44</ele>
        <time>2018-05-31T11:09:33Z</time>
      </trkpt>
      <trkpt lat="44.83353" lon="-0.52047">
        <ele>-49.1</ele>
        <time>2018-05-31T11:09:59Z</time>
      </trkpt>
      <trkpt lat="44.8337" lon="-0.52059">
        <ele>-53.6</ele>
        <time>2018-05-31T11:10:04Z</time>
      </trkpt>
      <trkpt lat="44.83378" lon="-0.52058">
        <ele>-57</ele>
        <time>2018-05-31T11:10:08Z</time>
      </trkpt>
      <trkpt lat="44.83386" lon="-0.52055">
        <ele>-57.3</ele>
        <time>2018-05-31T11:10:12Z</time>
      </trkpt>
      <trkpt lat="44.83396" lon="-0.52057">
        <ele>-55.1</ele>
        <time>2018-05-31T11:10:17Z</time>
      </trkpt>
      <trkpt lat="44.83404" lon="-0.52058">
        <ele>-56.2</ele>
        <time>2018-05-31T11:10:22Z</time>
      </trkpt>
      <trkpt lat="44.83411" lon="-0.52057">
        <ele>-58.1</ele>
        <time>2018-05-31T11:10:28Z</time>
      </trkpt>
      <trkpt lat="44.83419" lon="-0.52053">
        <ele>-58.4</ele>
        <time>2018-05-31T11:10:32Z</time>
      </trkpt>
      <trkpt lat="44.83428" lon="-0.52053">
        <ele>-61.2</ele>
        <time>2018-05-31T11:10:37Z</time>
      </trkpt>
      <trkpt lat="44.83437" lon="-0.52055">
        <ele>-64</ele>
        <time>2018-05-31T11:10:41Z</time>
      </trkpt>
      <trkpt lat="44.83448" lon="-0.52058">
        <ele>-65.8</ele>
        <time>2018-05-31T11:10:45Z</time>
      </trkpt>
      <trkpt lat="44.83449" lon="-0.5205">
        <ele>-76.5</ele>
        <time>2018-05-31T11:10:53Z</time>
      </trkpt>
      <trkpt lat="44.83445" lon="-0.52028">
        <ele>-67.9</ele>
        <time>2018-05-31T11:10:57Z</time>
      </trkpt>
      <trkpt lat="44.83446" lon="-0.52016">
        <ele>-62.4</ele>
        <time>2018-05-31T11:11:03Z</time>
      </trkpt>
      <trkpt lat="44.83448" lon="-0.52004">
        <ele>-55.5</ele>
        <time>2018-05-31T11:11:09Z</time>
      </trkpt>
      <trkpt lat="44.8345" lon="-0.51994">
        <ele>-53</ele>
        <time>2018-05-31T11:11:15Z</time>
      </trkpt>
      <trkpt lat="44.83454" lon="-0.51984">
        <ele>-49</ele>
        <time>2018-05-31T11:11:20Z</time>
      </trkpt>
      <trkpt lat="44.83461" lon="-0.51977">
        <ele>-44.7</ele>
        <time>2018-05-31T11:11:25Z</time>
      </trkpt>
      <trkpt lat="44.83464" lon="-0.51967">
        <ele>-43.2</ele>
        <time>2018-05-31T11:11:33Z</time>
      </trkpt>
      <trkpt lat="44.83472" lon="-0.51963">
        <ele>-48</ele>
        <time>2018-05-31T11:11:40Z</time>
      </trkpt>
      <trkpt lat="44.83478" lon="-0.51965">
        <ele>-52.5</ele>
        <time>2018-05-31T11:11:44Z</time>
      </trkpt>
      <trkpt lat="44.83491" lon="-0.51972">
        <ele>-58.6</ele>
        <time>2018-05-31T11:11:48Z</time>
      </trkpt>
      <trkpt lat="44.83497" lon="-0.51969">
        <ele>-65.3</ele>
        <time>2018-05-31T11:11:55Z</time>
      </trkpt>
      <trkpt lat="44.83509" lon="-0.51983">
        <ele>-76.9</ele>
        <time>2018-05-31T11:11:59Z</time>
      </trkpt>
      <trkpt lat="44.83513" lon="-0.51996">
        <ele>-93.4</ele>
        <time>2018-05-31T11:12:03Z</time>
      </trkpt>
      <trkpt lat="44.83512" lon="-0.5201">
        <ele>-112.8</ele>
        <time>2018-05-31T11:12:08Z</time>
      </trkpt>
      <trkpt lat="44.83511" lon="-0.52002">
        <ele>-120.5</ele>
        <time>2018-05-31T11:12:20Z</time>
      </trkpt>
      <trkpt lat="44.835" lon="-0.51984">
        <ele>-116.4</ele>
        <time>2018-05-31T11:12:23Z</time>
      </trkpt>
      <trkpt lat="44.83488" lon="-0.51972">
        <ele>-117.1</ele>
        <time>2018-05-31T11:12:28Z</time>
      </trkpt>
      <trkpt lat="44.83491" lon="-0.51962">
        <ele>-113.9</ele>
        <time>2018-05-31T11:12:34Z</time>
      </trkpt>
      <trkpt lat="44.83499" lon="-0.51959">
        <ele>-107.8</ele>
        <time>2018-05-31T11:12:43Z</time>
      </trkpt>
      <trkpt lat="44.83506" lon="-0.51964">
        <ele>-105.2</ele>
        <time>2018-05-31T11:12:52Z</time>
      </trkpt>
      <trkpt lat="44.8351" lon="-0.51972">
        <ele>-102</ele>
        <time>2018-05-31T11:12:59Z</time>
      </trkpt>
      <trkpt lat="44.83516" lon="-0.51979">
        <ele>-94.1</ele>
        <time>2018-05-31T11:13:09Z</time>
      </trkpt>
      <trkpt lat="44.83525" lon="-0.51978">
        <ele>-93.4</ele>
        <time>2018-05-31T11:13:14Z</time>
      </trkpt>
      <trkpt lat="44.83524" lon="-0.5199">
        <ele>-86.3</ele>
        <time>2018-05-31T11:13:26Z</time>
      </trkpt>
      <trkpt lat="44.83521" lon="-0.52">
        <ele>-77.4</ele>
        <time>2018-05-31T11:13:44Z</time>
      </trkpt>
      <trkpt lat="44.83524" lon="-0.52011">
        <ele>-74.8</ele>
        <time>2018-05-31T11:13:52Z</time>
      </trkpt>
      <trkpt lat="44.83533" lon="-0.52012">
        <ele>-71.4</ele>
        <time>2018-05-31T11:14:02Z</time>
      </trkpt>
      <trkpt lat="44.83539" lon="-0.52019">
        <ele>-69.2</ele>
        <time>2018-05-31T11:14:09Z</time>
      </trkpt>
      <trkpt lat="44.83547" lon="-0.52023">
        <ele>-67.3</ele>
        <time>2018-05-31T11:14:15Z</time>
      </trkpt>
      <trkpt lat="44.8355" lon="-0.52037">
        <ele>-65.9</ele>
        <time>2018-05-31T11:14:19Z</time>
      </trkpt>
      <trkpt lat="44.83556" lon="-0.52045">
        <ele>-64.6</ele>
        <time>2018-05-31T11:14:23Z</time>
      </trkpt>
      <trkpt lat="44.83562" lon="-0.52051">
        <ele>-62</ele>
        <time>2018-05-31T11:14:31Z</time>
      </trkpt>
      <trkpt lat="44.83567" lon="-0.52062">
        <ele>-60.7</ele>
        <time>2018-05-31T11:14:35Z</time>
      </trkpt>
      <trkpt lat="44.83569" lon="-0.52074">
        <ele>-55.2</ele>
        <time>2018-05-31T11:14:51Z</time>
      </trkpt>
      <trkpt lat="44.83567" lon="-0.52085">
        <ele>-53.1</ele>
        <time>2018-05-31T11:14:57Z</time>
      </trkpt>
      <trkpt lat="44.83568" lon="-0.52095">
        <ele>-51.3</ele>
        <time>2018-05-31T11:15:02Z</time>
      </trkpt>
      <trkpt lat="44.83574" lon="-0.52103">
        <ele>-49.6</ele>
        <time>2018-05-31T11:15:07Z</time>
      </trkpt>
      <trkpt lat="44.83581" lon="-0.52108">
        <ele>-47.6</ele>
        <time>2018-05-31T11:15:13Z</time>
      </trkpt>
      <trkpt lat="44.83589" lon="-0.52112">
        <ele>-46.2</ele>
        <time>2018-05-31T11:15:17Z</time>
      </trkpt>
      <trkpt lat="44.83594" lon="-0.5212">
        <ele>-35.1</ele>
        <time>2018-05-31T11:15:44Z</time>
      </trkpt>
      <trkpt lat="44.83603" lon="-0.52117">
        <ele>-32.6</ele>
        <time>2018-05-31T11:15:48Z</time>
      </trkpt>
      <trkpt lat="44.8361" lon="-0.5212">
        <ele>-30.2</ele>
        <time>2018-05-31T11:15:53Z</time>
      </trkpt>
      <trkpt lat="44.83619" lon="-0.52119">
        <ele>-26.7</ele>
        <time>2018-05-31T11:15:57Z</time>
      </trkpt>
      <trkpt lat="44.83625" lon="-0.5212">
        <ele>-13.4</ele>
        <time>2018-05-31T11:16:56Z</time>
      </trkpt>
      <trkpt lat="44.83637" lon="-0.52113">
        <ele>-13.6</ele>
        <time>2018-05-31T11:17:01Z</time>
      </trkpt>
      <trkpt lat="44.83628" lon="-0.52101">
        <ele>-16.5</ele>
        <time>2018-05-31T11:17:05Z</time>
      </trkpt>
      <trkpt lat="44.83624" lon="-0.52112">
        <ele>-15.2</ele>
        <time>2018-05-31T11:17:20Z</time>
      </trkpt>
      <trkpt lat="44.83608" lon="-0.5211">
        <ele>-13.5</ele>
        <time>2018-05-31T11:17:24Z</time>
      </trkpt>
      <trkpt lat="44.83573" lon="-0.52091">
        <ele>-12.2</ele>
        <time>2018-05-31T11:17:29Z</time>
      </trkpt>
      <trkpt lat="44.83553" lon="-0.52082">
        <ele>-11.9</ele>
        <time>2018-05-31T11:17:33Z</time>
      </trkpt>
      <trkpt lat="44.83541" lon="-0.52079">
        <ele>-11.8</ele>
        <time>2018-05-31T11:17:35Z</time>
      </trkpt>
      <trkpt lat="44.83605" lon="-0.52128">
        <ele>-13</ele>
        <time>2018-05-31T11:17:53Z</time>
      </trkpt>
      <trkpt lat="44.83618" lon="-0.52126">
        <ele>-17.9</ele>
        <time>2018-05-31T11:17:57Z</time>
      </trkpt>
      <trkpt lat="44.83623" lon="-0.52135">
        <ele>-10</ele>
        <time>2018-05-31T11:18:04Z</time>
      </trkpt>
      <trkpt lat="44.83628" lon="-0.52146">
        <ele>-9.1</ele>
        <time>2018-05-31T11:18:13Z</time>
      </trkpt>
      <trkpt lat="44.83624" lon="-0.52153">
        <ele>-10.1</ele>
        <time>2018-05-31T11:18:27Z</time>
      </trkpt>
      <trkpt lat="44.83617" lon="-0.52161">
        <ele>-10.2</ele>
        <time>2018-05-31T11:18:35Z</time>
      </trkpt>
      <trkpt lat="44.8361" lon="-0.52165">
        <ele>-7.3</ele>
        <time>2018-05-31T11:18:46Z</time>
      </trkpt>
      <trkpt lat="44.83601" lon="-0.52168">
        <ele>-3.8</ele>
        <time>2018-05-31T11:18:56Z</time>
      </trkpt>
      <trkpt lat="44.83594" lon="-0.52173">
        <ele>-4.8</ele>
        <time>2018-05-31T11:19:04Z</time>
      </trkpt>
      <trkpt lat="44.83588" lon="-0.52181">
        <ele>-3.6</ele>
        <time>2018-05-31T11:19:11Z</time>
      </trkpt>
      <trkpt lat="44.83586" lon="-0.52193">
        <ele>-4.6</ele>
        <time>2018-05-31T11:19:19Z</time>
      </trkpt>
      <trkpt lat="44.83585" lon="-0.52206">
        <ele>-4.4</ele>
        <time>2018-05-31T11:19:27Z</time>
      </trkpt>
      <trkpt lat="44.83577" lon="-0.52209">
        <ele>-3.6</ele>
        <time>2018-05-31T11:19:37Z</time>
      </trkpt>
      <trkpt lat="44.83569" lon="-0.5221">
        <ele>-0.2</ele>
        <time>2018-05-31T11:19:45Z</time>
      </trkpt>
      <trkpt lat="44.83561" lon="-0.5221">
        <ele>0.6</ele>
        <time>2018-05-31T11:19:51Z</time>
      </trkpt>
      <trkpt lat="44.83552" lon="-0.5221">
        <ele>1</ele>
        <time>2018-05-31T11:19:58Z</time>
      </trkpt>
      <trkpt lat="44.83546" lon="-0.52217">
        <ele>0.4</ele>
        <time>2018-05-31T11:20:05Z</time>
      </trkpt>
      <trkpt lat="44.83542" lon="-0.52227">
        <ele>1.6</ele>
        <time>2018-05-31T11:20:13Z</time>
      </trkpt>
      <trkpt lat="44.83541" lon="-0.52239">
        <ele>1.2</ele>
        <time>2018-05-31T11:20:56Z</time>
      </trkpt>
      <trkpt lat="44.83539" lon="-0.52251">
        <ele>3</ele>
        <time>2018-05-31T11:21:05Z</time>
      </trkpt>
      <trkpt lat="44.83539" lon="-0.52264">
        <ele>4.4</ele>
        <time>2018-05-31T11:21:13Z</time>
      </trkpt>
      <trkpt lat="44.83539" lon="-0.52275">
        <ele>6.8</ele>
        <time>2018-05-31T11:21:20Z</time>
      </trkpt>
      <trkpt lat="44.83537" lon="-0.52287">
        <ele>10.9</ele>
        <time>2018-05-31T11:21:29Z</time>
      </trkpt>
      <trkpt lat="44.83534" lon="-0.52299">
        <ele>13.1</ele>
        <time>2018-05-31T11:21:37Z</time>
      </trkpt>
      <trkpt lat="44.83532" lon="-0.52309">
        <ele>12.5</ele>
        <time>2018-05-31T11:21:44Z</time>
      </trkpt>
      <trkpt lat="44.83535" lon="-0.52321">
        <ele>11.1</ele>
        <time>2018-05-31T11:21:51Z</time>
      </trkpt>
      <trkpt lat="44.83541" lon="-0.52329">
        <ele>9.7</ele>
        <time>2018-05-31T11:21:57Z</time>
      </trkpt>
      <trkpt lat="44.83544" lon="-0.52332">
        <ele>7.9</ele>
        <time>2018-05-31T11:22:46Z</time>
      </trkpt>
      <trkpt lat="44.83546" lon="-0.52347">
        <ele>24.8</ele>
        <time>2018-05-31T11:22:50Z</time>
      </trkpt>
      <trkpt lat="44.83554" lon="-0.52346">
        <ele>22.3</ele>
        <time>2018-05-31T11:23:08Z</time>
      </trkpt>
      <trkpt lat="44.83562" lon="-0.5235">
        <ele>15.1</ele>
        <time>2018-05-31T11:23:14Z</time>
      </trkpt>
      <trkpt lat="44.8357" lon="-0.52356">
        <ele>10.5</ele>
        <time>2018-05-31T11:23:20Z</time>
      </trkpt>
      <trkpt lat="44.83577" lon="-0.52359">
        <ele>5.4</ele>
        <time>2018-05-31T11:23:26Z</time>
      </trkpt>
      <trkpt lat="44.83586" lon="-0.52363">
        <ele>0.7</ele>
        <time>2018-05-31T11:23:32Z</time>
      </trkpt>
      <trkpt lat="44.83594" lon="-0.52367">
        <ele>-8.1</ele>
        <time>2018-05-31T11:23:38Z</time>
      </trkpt>
      <trkpt lat="44.83602" lon="-0.52372">
        <ele>-13.2</ele>
        <time>2018-05-31T11:23:43Z</time>
      </trkpt>
      <trkpt lat="44.83608" lon="-0.52379">
        <ele>-20.5</ele>
        <time>2018-05-31T11:23:54Z</time>
      </trkpt>
      <trkpt lat="44.83616" lon="-0.52386">
        <ele>-21.3</ele>
        <time>2018-05-31T11:24:03Z</time>
      </trkpt>
      <trkpt lat="44.83622" lon="-0.52394">
        <ele>-20.2</ele>
        <time>2018-05-31T11:24:13Z</time>
      </trkpt>
      <trkpt lat="44.8363" lon="-0.52401">
        <ele>-19.9</ele>
        <time>2018-05-31T11:24:21Z</time>
      </trkpt>
      <trkpt lat="44.83637" lon="-0.52405">
        <ele>-17.1</ele>
        <time>2018-05-31T11:24:29Z</time>
      </trkpt>
      <trkpt lat="44.83646" lon="-0.52408">
        <ele>-13.2</ele>
        <time>2018-05-31T11:24:34Z</time>
      </trkpt>
      <trkpt lat="44.83654" lon="-0.52411">
        <ele>-10.2</ele>
        <time>2018-05-31T11:24:39Z</time>
      </trkpt>
      <trkpt lat="44.83664" lon="-0.52413">
        <ele>-6.6</ele>
        <time>2018-05-31T11:24:43Z</time>
      </trkpt>
      <trkpt lat="44.83673" lon="-0.52416">
        <ele>-5.4</ele>
        <time>2018-05-31T11:24:48Z</time>
      </trkpt>
      <trkpt lat="44.83682" lon="-0.52419">
        <ele>1.6</ele>
        <time>2018-05-31T11:25:00Z</time>
      </trkpt>
      <trkpt lat="44.8369" lon="-0.52422">
        <ele>3.8</ele>
        <time>2018-05-31T11:25:08Z</time>
      </trkpt>
      <trkpt lat="44.83698" lon="-0.52424">
        <ele>5.4</ele>
        <time>2018-05-31T11:25:18Z</time>
      </trkpt>
      <trkpt lat="44.83706" lon="-0.52428">
        <ele>4.2</ele>
        <time>2018-05-31T11:25:27Z</time>
      </trkpt>
      <trkpt lat="44.83715" lon="-0.5243">
        <ele>7</ele>
        <time>2018-05-31T11:25:35Z</time>
      </trkpt>
      <trkpt lat="44.83724" lon="-0.52431">
        <ele>5.5</ele>
        <time>2018-05-31T11:25:43Z</time>
      </trkpt>
      <trkpt lat="44.83731" lon="-0.52433">
        <ele>4.6</ele>
        <time>2018-05-31T11:25:50Z</time>
      </trkpt>
      <trkpt lat="44.83739" lon="-0.52436">
        <ele>6.7</ele>
        <time>2018-05-31T11:25:55Z</time>
      </trkpt>
      <trkpt lat="44.83748" lon="-0.52438">
        <ele>7.8</ele>
        <time>2018-05-31T11:26:03Z</time>
      </trkpt>
      <trkpt lat="44.83757" lon="-0.5244">
        <ele>9.6</ele>
        <time>2018-05-31T11:26:13Z</time>
      </trkpt>
      <trkpt lat="44.83765" lon="-0.5244">
        <ele>6.8</ele>
        <time>2018-05-31T11:26:18Z</time>
      </trkpt>
      <trkpt lat="44.83774" lon="-0.52441">
        <ele>10.6</ele>
        <time>2018-05-31T11:26:26Z</time>
      </trkpt>
      <trkpt lat="44.83782" lon="-0.52445">
        <ele>10.3</ele>
        <time>2018-05-31T11:26:32Z</time>
      </trkpt>
      <trkpt lat="44.8379" lon="-0.52451">
        <ele>6.9</ele>
        <time>2018-05-31T11:26:39Z</time>
      </trkpt>
      <trkpt lat="44.83797" lon="-0.52457">
        <ele>1.7</ele>
        <time>2018-05-31T11:26:45Z</time>
      </trkpt>
      <trkpt lat="44.83804" lon="-0.52464">
        <ele>-4.5</ele>
        <time>2018-05-31T11:26:50Z</time>
      </trkpt>
      <trkpt lat="44.83812" lon="-0.52465">
        <ele>-4.8</ele>
        <time>2018-05-31T11:26:54Z</time>
      </trkpt>
      <trkpt lat="44.83821" lon="-0.52469">
        <ele>-4.9</ele>
        <time>2018-05-31T11:27:00Z</time>
      </trkpt>
      <trkpt lat="44.83829" lon="-0.52468">
        <ele>-2.9</ele>
        <time>2018-05-31T11:27:07Z</time>
      </trkpt>
      <trkpt lat="44.83837" lon="-0.52471">
        <ele>-4.3</ele>
        <time>2018-05-31T11:27:14Z</time>
      </trkpt>
      <trkpt lat="44.83846" lon="-0.52472">
        <ele>-7.2</ele>
        <time>2018-05-31T11:27:20Z</time>
      </trkpt>
      <trkpt lat="44.83854" lon="-0.52473">
        <ele>-7.3</ele>
        <time>2018-05-31T11:27:24Z</time>
      </trkpt>
      <trkpt lat="44.83862" lon="-0.52474">
        <ele>-0.4</ele>
        <time>2018-05-31T11:27:35Z</time>
      </trkpt>
      <trkpt lat="44.83867" lon="-0.52467">
        <ele>10.9</ele>
        <time>2018-05-31T11:27:44Z</time>
      </trkpt>
      <trkpt lat="44.83876" lon="-0.52465">
        <ele>18.9</ele>
        <time>2018-05-31T11:27:50Z</time>
      </trkpt>
      <trkpt lat="44.83881" lon="-0.52467">
        <ele>19.4</ele>
        <time>2018-05-31T11:28:02Z</time>
      </trkpt>
      <trkpt lat="44.83889" lon="-0.52469">
        <ele>20.2</ele>
        <time>2018-05-31T11:28:06Z</time>
      </trkpt>
      <trkpt lat="44.83896" lon="-0.52474">
        <ele>12.6</ele>
        <time>2018-05-31T11:28:10Z</time>
      </trkpt>
      <trkpt lat="44.83904" lon="-0.52479">
        <ele>6.3</ele>
        <time>2018-05-31T11:28:16Z</time>
      </trkpt>
      <trkpt lat="44.83911" lon="-0.52486">
        <ele>-1.4</ele>
        <time>2018-05-31T11:28:22Z</time>
      </trkpt>
      <trkpt lat="44.83919" lon="-0.52491">
        <ele>-5.6</ele>
        <time>2018-05-31T11:28:28Z</time>
      </trkpt>
      <trkpt lat="44.83927" lon="-0.52492">
        <ele>-8.1</ele>
        <time>2018-05-31T11:28:37Z</time>
      </trkpt>
      <trkpt lat="44.83935" lon="-0.52492">
        <ele>-16.1</ele>
        <time>2018-05-31T11:28:48Z</time>
      </trkpt>
      <trkpt lat="44.83943" lon="-0.52487">
        <ele>-13.5</ele>
        <time>2018-05-31T11:28:55Z</time>
      </trkpt>
      <trkpt lat="44.83951" lon="-0.52486">
        <ele>-9.9</ele>
        <time>2018-05-31T11:29:01Z</time>
      </trkpt>
      <trkpt lat="44.83959" lon="-0.52483">
        <ele>-5.8</ele>
        <time>2018-05-31T11:29:06Z</time>
      </trkpt>
      <trkpt lat="44.83967" lon="-0.52477">
        <ele>-0.3</ele>
        <time>2018-05-31T11:29:12Z</time>
      </trkpt>
      <trkpt lat="44.83974" lon="-0.52471">
        <ele>3.8</ele>
        <time>2018-05-31T11:29:18Z</time>
      </trkpt>
      <trkpt lat="44.83981" lon="-0.52463">
        <ele>6.5</ele>
        <time>2018-05-31T11:29:25Z</time>
      </trkpt>
      <trkpt lat="44.83986" lon="-0.52452">
        <ele>7.7</ele>
        <time>2018-05-31T11:29:36Z</time>
      </trkpt>
      <trkpt lat="44.83994" lon="-0.5245">
        <ele>5.8</ele>
        <time>2018-05-31T11:29:45Z</time>
      </trkpt>
      <trkpt lat="44.84002" lon="-0.52448">
        <ele>5.8</ele>
        <time>2018-05-31T11:29:53Z</time>
      </trkpt>
      <trkpt lat="44.8401" lon="-0.52449">
        <ele>5.1</ele>
        <time>2018-05-31T11:29:59Z</time>
      </trkpt>
      <trkpt lat="44.84019" lon="-0.52448">
        <ele>5.9</ele>
        <time>2018-05-31T11:30:10Z</time>
      </trkpt>
      <trkpt lat="44.84022" lon="-0.52437">
        <ele>7.9</ele>
        <time>2018-05-31T11:30:19Z</time>
      </trkpt>
      <trkpt lat="44.84026" lon="-0.52426">
        <ele>6.7</ele>
        <time>2018-05-31T11:30:27Z</time>
      </trkpt>
      <trkpt lat="44.8403" lon="-0.52416">
        <ele>5.9</ele>
        <time>2018-05-31T11:30:34Z</time>
      </trkpt>
      <trkpt lat="44.84034" lon="-0.52405">
        <ele>4.1</ele>
        <time>2018-05-31T11:30:42Z</time>
      </trkpt>
      <trkpt lat="44.84042" lon="-0.524">
        <ele>1.9</ele>
        <time>2018-05-31T11:30:49Z</time>
      </trkpt>
      <trkpt lat="44.84048" lon="-0.52391">
        <ele>-0.7</ele>
        <time>2018-05-31T11:31:02Z</time>
      </trkpt>
      <trkpt lat="44.84056" lon="-0.52388">
        <ele>1.4</ele>
        <time>2018-05-31T11:31:10Z</time>
      </trkpt>
      <trkpt lat="44.84064" lon="-0.52383">
        <ele>1.1</ele>
        <time>2018-05-31T11:31:22Z</time>
      </trkpt>
      <trkpt lat="44.84072" lon="-0.52383">
        <ele>0.2</ele>
        <time>2018-05-31T11:31:29Z</time>
      </trkpt>
      <trkpt lat="44.84081" lon="-0.52384">
        <ele>-2.6</ele>
        <time>2018-05-31T11:31:37Z</time>
      </trkpt>
      <trkpt lat="44.84089" lon="-0.52383">
        <ele>-7.1</ele>
        <time>2018-05-31T11:31:49Z</time>
      </trkpt>
      <trkpt lat="44.84098" lon="-0.52382">
        <ele>-11.5</ele>
        <time>2018-05-31T11:31:56Z</time>
      </trkpt>
      <trkpt lat="44.84105" lon="-0.52381">
        <ele>-8.8</ele>
        <time>2018-05-31T11:32:06Z</time>
      </trkpt>
      <trkpt lat="44.84114" lon="-0.52379">
        <ele>-5.1</ele>
        <time>2018-05-31T11:32:12Z</time>
      </trkpt>
      <trkpt lat="44.84122" lon="-0.5238">
        <ele>-5.5</ele>
        <time>2018-05-31T11:32:18Z</time>
      </trkpt>
      <trkpt lat="44.84131" lon="-0.52382">
        <ele>-5.7</ele>
        <time>2018-05-31T11:32:26Z</time>
      </trkpt>
      <trkpt lat="44.8414" lon="-0.52384">
        <ele>-4.7</ele>
        <time>2018-05-31T11:32:36Z</time>
      </trkpt>
      <trkpt lat="44.84148" lon="-0.52386">
        <ele>-6.5</ele>
        <time>2018-05-31T11:32:43Z</time>
      </trkpt>
      <trkpt lat="44.84155" lon="-0.52387">
        <ele>-9.8</ele>
        <time>2018-05-31T11:32:51Z</time>
      </trkpt>
      <trkpt lat="44.84163" lon="-0.52388">
        <ele>-9.1</ele>
        <time>2018-05-31T11:33:08Z</time>
      </trkpt>
      <trkpt lat="44.8417" lon="-0.52394">
        <ele>-10.7</ele>
        <time>2018-05-31T11:33:15Z</time>
      </trkpt>
      <trkpt lat="44.84177" lon="-0.524">
        <ele>-11.7</ele>
        <time>2018-05-31T11:33:22Z</time>
      </trkpt>
      <trkpt lat="44.84183" lon="-0.52407">
        <ele>-10.8</ele>
        <time>2018-05-31T11:33:28Z</time>
      </trkpt>
      <trkpt lat="44.84191" lon="-0.52413">
        <ele>-10.6</ele>
        <time>2018-05-31T11:33:34Z</time>
      </trkpt>
      <trkpt lat="44.84196" lon="-0.52423">
        <ele>-10.3</ele>
        <time>2018-05-31T11:33:43Z</time>
      </trkpt>
      <trkpt lat="44.842" lon="-0.52434">
        <ele>-10.8</ele>
        <time>2018-05-31T11:33:52Z</time>
      </trkpt>
      <trkpt lat="44.84207" lon="-0.52437">
        <ele>-13</ele>
        <time>2018-05-31T11:33:56Z</time>
      </trkpt>
      <trkpt lat="44.84216" lon="-0.52438">
        <ele>-15.9</ele>
        <time>2018-05-31T11:34:00Z</time>
      </trkpt>
      <trkpt lat="44.84221" lon="-0.52446">
        <ele>-19.9</ele>
        <time>2018-05-31T11:34:18Z</time>
      </trkpt>
      <trkpt lat="44.84229" lon="-0.52452">
        <ele>-19.1</ele>
        <time>2018-05-31T11:34:28Z</time>
      </trkpt>
      <trkpt lat="44.84237" lon="-0.52455">
        <ele>-19.7</ele>
        <time>2018-05-31T11:34:35Z</time>
      </trkpt>
      <trkpt lat="44.84244" lon="-0.52462">
        <ele>-18.4</ele>
        <time>2018-05-31T11:34:41Z</time>
      </trkpt>
      <trkpt lat="44.84249" lon="-0.52472">
        <ele>-15.1</ele>
        <time>2018-05-31T11:34:49Z</time>
      </trkpt>
      <trkpt lat="44.84255" lon="-0.52477">
        <ele>-13.6</ele>
        <time>2018-05-31T11:34:53Z</time>
      </trkpt>
      <trkpt lat="44.84262" lon="-0.52484">
        <ele>-10.5</ele>
        <time>2018-05-31T11:34:59Z</time>
      </trkpt>
      <trkpt lat="44.84266" lon="-0.52495">
        <ele>-13.2</ele>
        <time>2018-05-31T11:35:12Z</time>
      </trkpt>
      <trkpt lat="44.84272" lon="-0.52499">
        <ele>-21.6</ele>
        <time>2018-05-31T11:35:23Z</time>
      </trkpt>
      <trkpt lat="44.8428" lon="-0.52495">
        <ele>-21.9</ele>
        <time>2018-05-31T11:35:29Z</time>
      </trkpt>
      <trkpt lat="44.84289" lon="-0.52495">
        <ele>-21.9</ele>
        <time>2018-05-31T11:35:37Z</time>
      </trkpt>
      <trkpt lat="44.84296" lon="-0.525">
        <ele>-24.9</ele>
        <time>2018-05-31T11:35:47Z</time>
      </trkpt>
      <trkpt lat="44.84304" lon="-0.52505">
        <ele>-23.6</ele>
        <time>2018-05-31T11:35:52Z</time>
      </trkpt>
      <trkpt lat="44.84312" lon="-0.52508">
        <ele>-20.6</ele>
        <time>2018-05-31T11:35:57Z</time>
      </trkpt>
      <trkpt lat="44.8432" lon="-0.5251">
        <ele>-21.6</ele>
        <time>2018-05-31T11:36:01Z</time>
      </trkpt>
      <trkpt lat="44.84327" lon="-0.52513">
        <ele>-22.8</ele>
        <time>2018-05-31T11:36:05Z</time>
      </trkpt>
      <trkpt lat="44.84336" lon="-0.52517">
        <ele>-23.2</ele>
        <time>2018-05-31T11:36:13Z</time>
      </trkpt>
      <trkpt lat="44.84344" lon="-0.5252">
        <ele>-23.7</ele>
        <time>2018-05-31T11:36:23Z</time>
      </trkpt>
      <trkpt lat="44.84352" lon="-0.52521">
        <ele>-24.5</ele>
        <time>2018-05-31T11:36:29Z</time>
      </trkpt>
      <trkpt lat="44.84361" lon="-0.5252">
        <ele>-24.7</ele>
        <time>2018-05-31T11:36:36Z</time>
      </trkpt>
      <trkpt lat="44.84369" lon="-0.52523">
        <ele>-27.4</ele>
        <time>2018-05-31T11:36:44Z</time>
      </trkpt>
      <trkpt lat="44.84377" lon="-0.52525">
        <ele>-29.8</ele>
        <time>2018-05-31T11:36:51Z</time>
      </trkpt>
      <trkpt lat="44.84387" lon="-0.52524">
        <ele>-35</ele>
        <time>2018-05-31T11:36:55Z</time>
      </trkpt>
      <trkpt lat="44.84395" lon="-0.52526">
        <ele>-38.5</ele>
        <time>2018-05-31T11:37:01Z</time>
      </trkpt>
      <trkpt lat="44.84403" lon="-0.52526">
        <ele>-40.9</ele>
        <time>2018-05-31T11:37:08Z</time>
      </trkpt>
      <trkpt lat="44.84403" lon="-0.52515">
        <ele>-34.4</ele>
        <time>2018-05-31T11:37:15Z</time>
      </trkpt>
      <trkpt lat="44.84401" lon="-0.52503">
        <ele>-28</ele>
        <time>2018-05-31T11:37:22Z</time>
      </trkpt>
      <trkpt lat="44.84403" lon="-0.52492">
        <ele>-25.3</ele>
        <time>2018-05-31T11:37:30Z</time>
      </trkpt>
      <trkpt lat="44.84402" lon="-0.5248">
        <ele>-27.3</ele>
        <time>2018-05-31T11:37:38Z</time>
      </trkpt>
      <trkpt lat="44.84399" lon="-0.52469">
        <ele>-26.4</ele>
        <time>2018-05-31T11:37:45Z</time>
      </trkpt>
      <trkpt lat="44.84397" lon="-0.52458">
        <ele>-26.9</ele>
        <time>2018-05-31T11:37:50Z</time>
      </trkpt>
      <trkpt lat="44.84394" lon="-0.52447">
        <ele>-25.1</ele>
        <time>2018-05-31T11:37:55Z</time>
      </trkpt>
      <trkpt lat="44.84393" lon="-0.52436">
        <ele>-24.4</ele>
        <time>2018-05-31T11:38:01Z</time>
      </trkpt>
      <trkpt lat="44.84391" lon="-0.52424">
        <ele>-26</ele>
        <time>2018-05-31T11:38:08Z</time>
      </trkpt>
      <trkpt lat="44.84391" lon="-0.52412">
        <ele>-26.7</ele>
        <time>2018-05-31T11:38:14Z</time>
      </trkpt>
      <trkpt lat="44.84392" lon="-0.52401">
        <ele>-27.1</ele>
        <time>2018-05-31T11:38:22Z</time>
      </trkpt>
      <trkpt lat="44.84398" lon="-0.52393">
        <ele>-27.2</ele>
        <time>2018-05-31T11:38:28Z</time>
      </trkpt>
      <trkpt lat="44.84398" lon="-0.52381">
        <ele>-26.3</ele>
        <time>2018-05-31T11:38:36Z</time>
      </trkpt>
      <trkpt lat="44.84405" lon="-0.52374">
        <ele>-27.2</ele>
        <time>2018-05-31T11:38:44Z</time>
      </trkpt>
      <trkpt lat="44.84411" lon="-0.52368">
        <ele>-29.7</ele>
        <time>2018-05-31T11:38:49Z</time>
      </trkpt>
      <trkpt lat="44.8442" lon="-0.52362">
        <ele>-35.4</ele>
        <time>2018-05-31T11:38:53Z</time>
      </trkpt>
      <trkpt lat="44.84427" lon="-0.52358">
        <ele>-37.7</ele>
        <time>2018-05-31T11:38:58Z</time>
      </trkpt>
      <trkpt lat="44.84431" lon="-0.52347">
        <ele>-40</ele>
        <time>2018-05-31T11:39:05Z</time>
      </trkpt>
      <trkpt lat="44.84428" lon="-0.52336">
        <ele>-36.2</ele>
        <time>2018-05-31T11:39:12Z</time>
      </trkpt>
      <trkpt lat="44.84423" lon="-0.52326">
        <ele>-34.8</ele>
        <time>2018-05-31T11:39:18Z</time>
      </trkpt>
      <trkpt lat="44.84419" lon="-0.52317">
        <ele>-34.8</ele>
        <time>2018-05-31T11:39:23Z</time>
      </trkpt>
      <trkpt lat="44.84413" lon="-0.52308">
        <ele>-35.1</ele>
        <time>2018-05-31T11:39:29Z</time>
      </trkpt>
      <trkpt lat="44.8441" lon="-0.52296">
        <ele>-33.3</ele>
        <time>2018-05-31T11:39:36Z</time>
      </trkpt>
      <trkpt lat="44.84411" lon="-0.52283">
        <ele>-30.8</ele>
        <time>2018-05-31T11:39:42Z</time>
      </trkpt>
      <trkpt lat="44.84412" lon="-0.52271">
        <ele>-28</ele>
        <time>2018-05-31T11:39:49Z</time>
      </trkpt>
      <trkpt lat="44.84414" lon="-0.5226">
        <ele>-29.1</ele>
        <time>2018-05-31T11:39:56Z</time>
      </trkpt>
      <trkpt lat="44.84414" lon="-0.52248">
        <ele>-29.4</ele>
        <time>2018-05-31T11:40:04Z</time>
      </trkpt>
      <trkpt lat="44.84419" lon="-0.52238">
        <ele>-30.3</ele>
        <time>2018-05-31T11:40:12Z</time>
      </trkpt>
      <trkpt lat="44.84422" lon="-0.52227">
        <ele>-28.8</ele>
        <time>2018-05-31T11:40:19Z</time>
      </trkpt>
      <trkpt lat="44.84424" lon="-0.52215">
        <ele>-28.8</ele>
        <time>2018-05-31T11:40:26Z</time>
      </trkpt>
      <trkpt lat="44.84429" lon="-0.52206">
        <ele>-27.4</ele>
        <time>2018-05-31T11:40:33Z</time>
      </trkpt>
      <trkpt lat="44.84432" lon="-0.52195">
        <ele>-24.6</ele>
        <time>2018-05-31T11:40:40Z</time>
      </trkpt>
      <trkpt lat="44.84438" lon="-0.52187">
        <ele>-28.4</ele>
        <time>2018-05-31T11:40:48Z</time>
      </trkpt>
      <trkpt lat="44.84436" lon="-0.52177">
        <ele>-26.7</ele>
        <time>2018-05-31T11:40:53Z</time>
      </trkpt>
      <trkpt lat="44.84436" lon="-0.52166">
        <ele>-20.1</ele>
        <time>2018-05-31T11:41:04Z</time>
      </trkpt>
      <trkpt lat="44.84434" lon="-0.52153">
        <ele>-15.3</ele>
        <time>2018-05-31T11:41:12Z</time>
      </trkpt>
      <trkpt lat="44.8443" lon="-0.52143">
        <ele>-15.1</ele>
        <time>2018-05-31T11:41:18Z</time>
      </trkpt>
      <trkpt lat="44.84426" lon="-0.52133">
        <ele>-15.6</ele>
        <time>2018-05-31T11:41:24Z</time>
      </trkpt>
      <trkpt lat="44.84423" lon="-0.52121">
        <ele>-14.8</ele>
        <time>2018-05-31T11:41:31Z</time>
      </trkpt>
      <trkpt lat="44.84424" lon="-0.5211">
        <ele>-12.7</ele>
        <time>2018-05-31T11:41:38Z</time>
      </trkpt>
      <trkpt lat="44.84423" lon="-0.52098">
        <ele>-12.5</ele>
        <time>2018-05-31T11:41:45Z</time>
      </trkpt>
      <trkpt lat="44.84424" lon="-0.52087">
        <ele>-11.9</ele>
        <time>2018-05-31T11:41:51Z</time>
      </trkpt>
      <trkpt lat="44.84422" lon="-0.52076">
        <ele>-12</ele>
        <time>2018-05-31T11:41:59Z</time>
      </trkpt>
      <trkpt lat="44.84422" lon="-0.52064">
        <ele>-8.9</ele>
        <time>2018-05-31T11:42:06Z</time>
      </trkpt>
      <trkpt lat="44.84422" lon="-0.52052">
        <ele>-8.3</ele>
        <time>2018-05-31T11:42:13Z</time>
      </trkpt>
      <trkpt lat="44.84426" lon="-0.52042">
        <ele>-9.6</ele>
        <time>2018-05-31T11:42:18Z</time>
      </trkpt>
      <trkpt lat="44.84429" lon="-0.52032">
        <ele>-9.7</ele>
        <time>2018-05-31T11:42:25Z</time>
      </trkpt>
      <trkpt lat="44.84427" lon="-0.52021">
        <ele>-6.5</ele>
        <time>2018-05-31T11:42:31Z</time>
      </trkpt>
      <trkpt lat="44.84427" lon="-0.52009">
        <ele>-4.2</ele>
        <time>2018-05-31T11:42:39Z</time>
      </trkpt>
      <trkpt lat="44.84424" lon="-0.51998">
        <ele>-3</ele>
        <time>2018-05-31T11:42:46Z</time>
      </trkpt>
      <trkpt lat="44.84427" lon="-0.51987">
        <ele>-3.4</ele>
        <time>2018-05-31T11:42:53Z</time>
      </trkpt>
      <trkpt lat="44.84424" lon="-0.51976">
        <ele>-3.2</ele>
        <time>2018-05-31T11:43:04Z</time>
      </trkpt>
      <trkpt lat="44.84424" lon="-0.51964">
        <ele>-3.1</ele>
        <time>2018-05-31T11:43:13Z</time>
      </trkpt>
      <trkpt lat="44.84421" lon="-0.51953">
        <ele>-0.7</ele>
        <time>2018-05-31T11:43:20Z</time>
      </trkpt>
      <trkpt lat="44.84418" lon="-0.51942">
        <ele>4.1</ele>
        <time>2018-05-31T11:43:27Z</time>
      </trkpt>
      <trkpt lat="44.84414" lon="-0.51931">
        <ele>4</ele>
        <time>2018-05-31T11:43:35Z</time>
      </trkpt>
      <trkpt lat="44.84411" lon="-0.5192">
        <ele>6.5</ele>
        <time>2018-05-31T11:43:44Z</time>
      </trkpt>
      <trkpt lat="44.84408" lon="-0.51908">
        <ele>4.7</ele>
        <time>2018-05-31T11:43:50Z</time>
      </trkpt>
      <trkpt lat="44.84405" lon="-0.51897">
        <ele>5</ele>
        <time>2018-05-31T11:43:56Z</time>
      </trkpt>
      <trkpt lat="44.84404" lon="-0.51886">
        <ele>3.1</ele>
        <time>2018-05-31T11:44:03Z</time>
      </trkpt>
      <trkpt lat="44.84403" lon="-0.51874">
        <ele>4.5</ele>
        <time>2018-05-31T11:44:11Z</time>
      </trkpt>
      <trkpt lat="44.84399" lon="-0.51865">
        <ele>5.8</ele>
        <time>2018-05-31T11:44:17Z</time>
      </trkpt>
      <trkpt lat="44.84395" lon="-0.51854">
        <ele>6</ele>
        <time>2018-05-31T11:44:24Z</time>
      </trkpt>
      <trkpt lat="44.84391" lon="-0.51843">
        <ele>9.8</ele>
        <time>2018-05-31T11:44:34Z</time>
      </trkpt>
      <trkpt lat="44.84392" lon="-0.51832">
        <ele>10</ele>
        <time>2018-05-31T11:44:42Z</time>
      </trkpt>
      <trkpt lat="44.84387" lon="-0.51823">
        <ele>7.2</ele>
        <time>2018-05-31T11:44:48Z</time>
      </trkpt>
      <trkpt lat="44.84382" lon="-0.51813">
        <ele>5.8</ele>
        <time>2018-05-31T11:44:54Z</time>
      </trkpt>
      <trkpt lat="44.84387" lon="-0.51804">
        <ele>3.9</ele>
        <time>2018-05-31T11:45:01Z</time>
      </trkpt>
      <trkpt lat="44.84395" lon="-0.51805">
        <ele>4.9</ele>
        <time>2018-05-31T11:45:05Z</time>
      </trkpt>
      <trkpt lat="44.84404" lon="-0.51804">
        <ele>4.1</ele>
        <time>2018-05-31T11:45:11Z</time>
      </trkpt>
      <trkpt lat="44.84403" lon="-0.51792">
        <ele>6.3</ele>
        <time>2018-05-31T11:45:22Z</time>
      </trkpt>
      <trkpt lat="44.84396" lon="-0.51789">
        <ele>8.5</ele>
        <time>2018-05-31T11:45:27Z</time>
      </trkpt>
      <trkpt lat="44.84388" lon="-0.51789">
        <ele>10.2</ele>
        <time>2018-05-31T11:46:26Z</time>
      </trkpt>
      <trkpt lat="44.84378" lon="-0.51786">
        <ele>14</ele>
        <time>2018-05-31T11:46:30Z</time>
      </trkpt>
      <trkpt lat="44.84369" lon="-0.51784">
        <ele>15.2</ele>
        <time>2018-05-31T11:46:39Z</time>
      </trkpt>
      <trkpt lat="44.84362" lon="-0.51782">
        <ele>16.6</ele>
        <time>2018-05-31T11:46:45Z</time>
      </trkpt>
      <trkpt lat="44.84355" lon="-0.51779">
        <ele>17.8</ele>
        <time>2018-05-31T11:46:51Z</time>
      </trkpt>
      <trkpt lat="44.84346" lon="-0.51776">
        <ele>14.3</ele>
        <time>2018-05-31T11:47:01Z</time>
      </trkpt>
      <trkpt lat="44.84338" lon="-0.51773">
        <ele>12.5</ele>
        <time>2018-05-31T11:47:14Z</time>
      </trkpt>
      <trkpt lat="44.84338" lon="-0.51762">
        <ele>4.4</ele>
        <time>2018-05-31T11:47:25Z</time>
      </trkpt>
      <trkpt lat="44.84343" lon="-0.51752">
        <ele>2.6</ele>
        <time>2018-05-31T11:47:33Z</time>
      </trkpt>
      <trkpt lat="44.84348" lon="-0.51742">
        <ele>2.1</ele>
        <time>2018-05-31T11:47:41Z</time>
      </trkpt>
      <trkpt lat="44.84347" lon="-0.51731">
        <ele>-0.6</ele>
        <time>2018-05-31T11:47:47Z</time>
      </trkpt>
      <trkpt lat="44.84345" lon="-0.51719">
        <ele>-0.7</ele>
        <time>2018-05-31T11:47:54Z</time>
      </trkpt>
      <trkpt lat="44.84339" lon="-0.51709">
        <ele>1.1</ele>
        <time>2018-05-31T11:47:59Z</time>
      </trkpt>
      <trkpt lat="44.84336" lon="-0.517">
        <ele>1.8</ele>
        <time>2018-05-31T11:48:05Z</time>
      </trkpt>
      <trkpt lat="44.84332" lon="-0.5169">
        <ele>1.4</ele>
        <time>2018-05-31T11:48:10Z</time>
      </trkpt>
      <trkpt lat="44.84324" lon="-0.51686">
        <ele>0.9</ele>
        <time>2018-05-31T11:48:20Z</time>
      </trkpt>
      <trkpt lat="44.84317" lon="-0.51681">
        <ele>6.1</ele>
        <time>2018-05-31T11:48:25Z</time>
      </trkpt>
      <trkpt lat="44.8431" lon="-0.51676">
        <ele>9.6</ele>
        <time>2018-05-31T11:48:32Z</time>
      </trkpt>
      <trkpt lat="44.84303" lon="-0.51668">
        <ele>14</ele>
        <time>2018-05-31T11:48:39Z</time>
      </trkpt>
      <trkpt lat="44.84296" lon="-0.51661">
        <ele>17.2</ele>
        <time>2018-05-31T11:48:45Z</time>
      </trkpt>
      <trkpt lat="44.84289" lon="-0.51654">
        <ele>15.5</ele>
        <time>2018-05-31T11:48:53Z</time>
      </trkpt>
      <trkpt lat="44.84284" lon="-0.51645">
        <ele>15.9</ele>
        <time>2018-05-31T11:49:01Z</time>
      </trkpt>
      <trkpt lat="44.8428" lon="-0.51635">
        <ele>15</ele>
        <time>2018-05-31T11:49:08Z</time>
      </trkpt>
      <trkpt lat="44.84279" lon="-0.51623">
        <ele>14.6</ele>
        <time>2018-05-31T11:49:15Z</time>
      </trkpt>
      <trkpt lat="44.84277" lon="-0.51611">
        <ele>12.8</ele>
        <time>2018-05-31T11:49:34Z</time>
      </trkpt>
      <trkpt lat="44.84276" lon="-0.51599">
        <ele>16.1</ele>
        <time>2018-05-31T11:49:44Z</time>
      </trkpt>
      <trkpt lat="44.84273" lon="-0.51588">
        <ele>17.1</ele>
        <time>2018-05-31T11:49:53Z</time>
      </trkpt>
      <trkpt lat="44.84272" lon="-0.51576">
        <ele>14.2</ele>
        <time>2018-05-31T11:50:05Z</time>
      </trkpt>
      <trkpt lat="44.84273" lon="-0.51564">
        <ele>13.5</ele>
        <time>2018-05-31T11:50:14Z</time>
      </trkpt>
      <trkpt lat="44.8427" lon="-0.51553">
        <ele>8.8</ele>
        <time>2018-05-31T11:50:56Z</time>
      </trkpt>
      <trkpt lat="44.84275" lon="-0.51543">
        <ele>10</ele>
        <time>2018-05-31T11:51:05Z</time>
      </trkpt>
      <trkpt lat="44.84281" lon="-0.51534">
        <ele>8.4</ele>
        <time>2018-05-31T11:51:14Z</time>
      </trkpt>
      <trkpt lat="44.84286" lon="-0.51524">
        <ele>3.9</ele>
        <time>2018-05-31T11:51:25Z</time>
      </trkpt>
      <trkpt lat="44.84292" lon="-0.51516">
        <ele>5.6</ele>
        <time>2018-05-31T11:51:30Z</time>
      </trkpt>
      <trkpt lat="44.84299" lon="-0.51509">
        <ele>5.6</ele>
        <time>2018-05-31T11:51:36Z</time>
      </trkpt>
      <trkpt lat="44.84305" lon="-0.515">
        <ele>4.9</ele>
        <time>2018-05-31T11:51:43Z</time>
      </trkpt>
      <trkpt lat="44.84314" lon="-0.51501">
        <ele>3.5</ele>
        <time>2018-05-31T11:51:47Z</time>
      </trkpt>
      <trkpt lat="44.84319" lon="-0.51494">
        <ele>1.6</ele>
        <time>2018-05-31T11:51:54Z</time>
      </trkpt>
      <trkpt lat="44.84322" lon="-0.51482">
        <ele>1.5</ele>
        <time>2018-05-31T11:52:01Z</time>
      </trkpt>
      <trkpt lat="44.84322" lon="-0.51471">
        <ele>4.4</ele>
        <time>2018-05-31T11:52:08Z</time>
      </trkpt>
      <trkpt lat="44.84323" lon="-0.5146">
        <ele>7</ele>
        <time>2018-05-31T11:52:15Z</time>
      </trkpt>
      <trkpt lat="44.84325" lon="-0.51449">
        <ele>4.1</ele>
        <time>2018-05-31T11:52:23Z</time>
      </trkpt>
      <trkpt lat="44.84327" lon="-0.51437">
        <ele>3.4</ele>
        <time>2018-05-31T11:52:30Z</time>
      </trkpt>
      <trkpt lat="44.8433" lon="-0.51426">
        <ele>3.6</ele>
        <time>2018-05-31T11:52:37Z</time>
      </trkpt>
      <trkpt lat="44.84331" lon="-0.51415">
        <ele>3.5</ele>
        <time>2018-05-31T11:52:43Z</time>
      </trkpt>
      <trkpt lat="44.84331" lon="-0.51402">
        <ele>4.9</ele>
        <time>2018-05-31T11:52:49Z</time>
      </trkpt>
      <trkpt lat="44.84333" lon="-0.51392">
        <ele>4.8</ele>
        <time>2018-05-31T11:52:56Z</time>
      </trkpt>
      <trkpt lat="44.84334" lon="-0.51379">
        <ele>6.5</ele>
        <time>2018-05-31T11:53:03Z</time>
      </trkpt>
      <trkpt lat="44.8433" lon="-0.51371">
        <ele>8.8</ele>
        <time>2018-05-31T11:53:07Z</time>
      </trkpt>
      <trkpt lat="44.84327" lon="-0.5136">
        <ele>9.5</ele>
        <time>2018-05-31T11:53:14Z</time>
      </trkpt>
      <trkpt lat="44.84325" lon="-0.51349">
        <ele>12.4</ele>
        <time>2018-05-31T11:53:21Z</time>
      </trkpt>
      <trkpt lat="44.84319" lon="-0.51339">
        <ele>13.9</ele>
        <time>2018-05-31T11:53:28Z</time>
      </trkpt>
      <trkpt lat="44.84326" lon="-0.51336">
        <ele>8.6</ele>
        <time>2018-05-31T11:53:32Z</time>
      </trkpt>
      <trkpt lat="44.84329" lon="-0.51325">
        <ele>6.3</ele>
        <time>2018-05-31T11:53:39Z</time>
      </trkpt>
      <trkpt lat="44.8433" lon="-0.51314">
        <ele>7</ele>
        <time>2018-05-31T11:53:44Z</time>
      </trkpt>
      <trkpt lat="44.84333" lon="-0.51302">
        <ele>7.5</ele>
        <time>2018-05-31T11:53:51Z</time>
      </trkpt>
      <trkpt lat="44.84333" lon="-0.5129">
        <ele>7.6</ele>
        <time>2018-05-31T11:53:59Z</time>
      </trkpt>
      <trkpt lat="44.84333" lon="-0.51279">
        <ele>9.5</ele>
        <time>2018-05-31T11:54:06Z</time>
      </trkpt>
      <trkpt lat="44.84334" lon="-0.51267">
        <ele>11.4</ele>
        <time>2018-05-31T11:54:15Z</time>
      </trkpt>
      <trkpt lat="44.8433" lon="-0.51258">
        <ele>11.6</ele>
        <time>2018-05-31T11:54:20Z</time>
      </trkpt>
      <trkpt lat="44.84325" lon="-0.51248">
        <ele>12.6</ele>
        <time>2018-05-31T11:54:26Z</time>
      </trkpt>
      <trkpt lat="44.84322" lon="-0.51238">
        <ele>12</ele>
        <time>2018-05-31T11:54:33Z</time>
      </trkpt>
      <trkpt lat="44.84318" lon="-0.51228">
        <ele>13.3</ele>
        <time>2018-05-31T11:54:39Z</time>
      </trkpt>
      <trkpt lat="44.84318" lon="-0.51216">
        <ele>13.5</ele>
        <time>2018-05-31T11:54:48Z</time>
      </trkpt>
      <trkpt lat="44.8432" lon="-0.51205">
        <ele>12.1</ele>
        <time>2018-05-31T11:54:57Z</time>
      </trkpt>
      <trkpt lat="44.84319" lon="-0.51194">
        <ele>15.5</ele>
        <time>2018-05-31T11:55:04Z</time>
      </trkpt>
      <trkpt lat="44.84316" lon="-0.51184">
        <ele>16.8</ele>
        <time>2018-05-31T11:55:10Z</time>
      </trkpt>
      <trkpt lat="44.84314" lon="-0.51171">
        <ele>19.7</ele>
        <time>2018-05-31T11:55:17Z</time>
      </trkpt>
      <trkpt lat="44.84311" lon="-0.51161">
        <ele>20</ele>
        <time>2018-05-31T11:55:24Z</time>
      </trkpt>
      <trkpt lat="44.84314" lon="-0.51149">
        <ele>16</ele>
        <time>2018-05-31T11:55:32Z</time>
      </trkpt>
      <trkpt lat="44.84318" lon="-0.51141">
        <ele>10.4</ele>
        <time>2018-05-31T11:55:42Z</time>
      </trkpt>
      <trkpt lat="44.84318" lon="-0.51128">
        <ele>9.7</ele>
        <time>2018-05-31T11:55:53Z</time>
      </trkpt>
      <trkpt lat="44.84313" lon="-0.51121">
        <ele>7.6</ele>
        <time>2018-05-31T11:56:00Z</time>
      </trkpt>
      <trkpt lat="44.84305" lon="-0.51113">
        <ele>9.7</ele>
        <time>2018-05-31T11:56:05Z</time>
      </trkpt>
      <trkpt lat="44.843" lon="-0.51104">
        <ele>9</ele>
        <time>2018-05-31T11:56:11Z</time>
      </trkpt>
      <trkpt lat="44.84297" lon="-0.51093">
        <ele>5.2</ele>
        <time>2018-05-31T11:56:19Z</time>
      </trkpt>
      <trkpt lat="44.84294" lon="-0.51081">
        <ele>3.1</ele>
        <time>2018-05-31T11:56:27Z</time>
      </trkpt>
      <trkpt lat="44.84296" lon="-0.51069">
        <ele>1.7</ele>
        <time>2018-05-31T11:56:35Z</time>
      </trkpt>
      <trkpt lat="44.84292" lon="-0.51059">
        <ele>3.7</ele>
        <time>2018-05-31T11:56:41Z</time>
      </trkpt>
      <trkpt lat="44.84294" lon="-0.51047">
        <ele>1.6</ele>
        <time>2018-05-31T11:56:49Z</time>
      </trkpt>
      <trkpt lat="44.84292" lon="-0.51036">
        <ele>1.4</ele>
        <time>2018-05-31T11:56:56Z</time>
      </trkpt>
      <trkpt lat="44.84288" lon="-0.51025">
        <ele>3.4</ele>
        <time>2018-05-31T11:57:02Z</time>
      </trkpt>
      <trkpt lat="44.84284" lon="-0.51015">
        <ele>4.7</ele>
        <time>2018-05-31T11:57:09Z</time>
      </trkpt>
      <trkpt lat="44.8428" lon="-0.51005">
        <ele>5.1</ele>
        <time>2018-05-31T11:57:15Z</time>
      </trkpt>
      <trkpt lat="44.84276" lon="-0.50994">
        <ele>5.5</ele>
        <time>2018-05-31T11:57:21Z</time>
      </trkpt>
      <trkpt lat="44.84273" lon="-0.50983">
        <ele>5.7</ele>
        <time>2018-05-31T11:57:27Z</time>
      </trkpt>
      <trkpt lat="44.84277" lon="-0.50972">
        <ele>4</ele>
        <time>2018-05-31T11:57:39Z</time>
      </trkpt>
      <trkpt lat="44.84279" lon="-0.50961">
        <ele>4.1</ele>
        <time>2018-05-31T11:57:47Z</time>
      </trkpt>
      <trkpt lat="44.84277" lon="-0.50949">
        <ele>4.8</ele>
        <time>2018-05-31T11:57:56Z</time>
      </trkpt>
      <trkpt lat="44.84274" lon="-0.50939">
        <ele>5.4</ele>
        <time>2018-05-31T11:58:02Z</time>
      </trkpt>
      <trkpt lat="44.84272" lon="-0.50927">
        <ele>7</ele>
        <time>2018-05-31T11:58:08Z</time>
      </trkpt>
      <trkpt lat="44.84275" lon="-0.50915">
        <ele>6.7</ele>
        <time>2018-05-31T11:58:15Z</time>
      </trkpt>
      <trkpt lat="44.84277" lon="-0.50904">
        <ele>6</ele>
        <time>2018-05-31T11:58:22Z</time>
      </trkpt>
      <trkpt lat="44.84278" lon="-0.50893">
        <ele>5.6</ele>
        <time>2018-05-31T11:58:29Z</time>
      </trkpt>
      <trkpt lat="44.8428" lon="-0.50881">
        <ele>2.7</ele>
        <time>2018-05-31T11:58:37Z</time>
      </trkpt>
      <trkpt lat="44.84285" lon="-0.5087">
        <ele>1.1</ele>
        <time>2018-05-31T11:58:44Z</time>
      </trkpt>
      <trkpt lat="44.84289" lon="-0.50859">
        <ele>2.4</ele>
        <time>2018-05-31T11:58:50Z</time>
      </trkpt>
      <trkpt lat="44.84289" lon="-0.50847">
        <ele>6.5</ele>
        <time>2018-05-31T11:58:57Z</time>
      </trkpt>
      <trkpt lat="44.8429" lon="-0.50835">
        <ele>6.7</ele>
        <time>2018-05-31T11:59:05Z</time>
      </trkpt>
      <trkpt lat="44.84289" lon="-0.50824">
        <ele>5.8</ele>
        <time>2018-05-31T11:59:12Z</time>
      </trkpt>
      <trkpt lat="44.84289" lon="-0.50812">
        <ele>6.5</ele>
        <time>2018-05-31T11:59:19Z</time>
      </trkpt>
      <trkpt lat="44.84288" lon="-0.508">
        <ele>6.2</ele>
        <time>2018-05-31T11:59:26Z</time>
      </trkpt>
      <trkpt lat="44.84291" lon="-0.50793">
        <ele>5.9</ele>
        <time>2018-05-31T11:59:31Z</time>
      </trkpt>
      <trkpt lat="44.84301" lon="-0.50787">
        <ele>2.5</ele>
        <time>2018-05-31T11:59:35Z</time>
      </trkpt>
      <trkpt lat="44.84302" lon="-0.50775">
        <ele>3.3</ele>
        <time>2018-05-31T11:59:43Z</time>
      </trkpt>
      <trkpt lat="44.84303" lon="-0.50763">
        <ele>3.6</ele>
        <time>2018-05-31T11:59:57Z</time>
      </trkpt>
      <trkpt lat="44.84301" lon="-0.50752">
        <ele>5.8</ele>
        <time>2018-05-31T12:00:04Z</time>
      </trkpt>
      <trkpt lat="44.84302" lon="-0.5074">
        <ele>7.6</ele>
        <time>2018-05-31T12:00:11Z</time>
      </trkpt>
      <trkpt lat="44.84303" lon="-0.50728">
        <ele>10.6</ele>
        <time>2018-05-31T12:00:26Z</time>
      </trkpt>
      <trkpt lat="44.84296" lon="-0.50721">
        <ele>17.4</ele>
        <time>2018-05-31T12:00:33Z</time>
      </trkpt>
      <trkpt lat="44.84288" lon="-0.50719">
        <ele>19.2</ele>
        <time>2018-05-31T12:00:41Z</time>
      </trkpt>
      <trkpt lat="44.84279" lon="-0.50716">
        <ele>22.1</ele>
        <time>2018-05-31T12:00:49Z</time>
      </trkpt>
      <trkpt lat="44.84272" lon="-0.5071">
        <ele>18.7</ele>
        <time>2018-05-31T12:01:01Z</time>
      </trkpt>
      <trkpt lat="44.84264" lon="-0.50707">
        <ele>19.8</ele>
        <time>2018-05-31T12:01:07Z</time>
      </trkpt>
      <trkpt lat="44.84256" lon="-0.50702">
        <ele>20.1</ele>
        <time>2018-05-31T12:01:13Z</time>
      </trkpt>
      <trkpt lat="44.84248" lon="-0.50699">
        <ele>22.8</ele>
        <time>2018-05-31T12:01:20Z</time>
      </trkpt>
      <trkpt lat="44.84241" lon="-0.50692">
        <ele>25.7</ele>
        <time>2018-05-31T12:01:27Z</time>
      </trkpt>
      <trkpt lat="44.84234" lon="-0.50684">
        <ele>26.6</ele>
        <time>2018-05-31T12:01:34Z</time>
      </trkpt>
      <trkpt lat="44.84229" lon="-0.50676">
        <ele>28.3</ele>
        <time>2018-05-31T12:01:39Z</time>
      </trkpt>
      <trkpt lat="44.84222" lon="-0.50668">
        <ele>29.2</ele>
        <time>2018-05-31T12:01:46Z</time>
      </trkpt>
      <trkpt lat="44.84217" lon="-0.50659">
        <ele>30.2</ele>
        <time>2018-05-31T12:01:53Z</time>
      </trkpt>
      <trkpt lat="44.84211" lon="-0.50651">
        <ele>31</ele>
        <time>2018-05-31T12:01:58Z</time>
      </trkpt>
      <trkpt lat="44.84206" lon="-0.50641">
        <ele>31.5</ele>
        <time>2018-05-31T12:02:05Z</time>
      </trkpt>
      <trkpt lat="44.84201" lon="-0.50631">
        <ele>31</ele>
        <time>2018-05-31T12:02:10Z</time>
      </trkpt>
      <trkpt lat="44.84198" lon="-0.50621">
        <ele>26.3</ele>
        <time>2018-05-31T12:02:16Z</time>
      </trkpt>
      <trkpt lat="44.84191" lon="-0.50613">
        <ele>25.7</ele>
        <time>2018-05-31T12:02:24Z</time>
      </trkpt>
      <trkpt lat="44.84183" lon="-0.50609">
        <ele>25.6</ele>
        <time>2018-05-31T12:02:31Z</time>
      </trkpt>
      <trkpt lat="44.84175" lon="-0.5061">
        <ele>22.7</ele>
        <time>2018-05-31T12:02:40Z</time>
      </trkpt>
      <trkpt lat="44.84167" lon="-0.50615">
        <ele>19.6</ele>
        <time>2018-05-31T12:02:49Z</time>
      </trkpt>
      <trkpt lat="44.84162" lon="-0.50624">
        <ele>20.3</ele>
        <time>2018-05-31T12:02:57Z</time>
      </trkpt>
      <trkpt lat="44.84159" lon="-0.50633">
        <ele>20.6</ele>
        <time>2018-05-31T12:03:03Z</time>
      </trkpt>
      <trkpt lat="44.84154" lon="-0.50643">
        <ele>22.4</ele>
        <time>2018-05-31T12:03:09Z</time>
      </trkpt>
      <trkpt lat="44.84148" lon="-0.50652">
        <ele>23.6</ele>
        <time>2018-05-31T12:03:15Z</time>
      </trkpt>
      <trkpt lat="44.84142" lon="-0.50661">
        <ele>23.7</ele>
        <time>2018-05-31T12:03:22Z</time>
      </trkpt>
      <trkpt lat="44.84137" lon="-0.5067">
        <ele>21.7</ele>
        <time>2018-05-31T12:03:28Z</time>
      </trkpt>
      <trkpt lat="44.84132" lon="-0.5068">
        <ele>22</ele>
        <time>2018-05-31T12:03:35Z</time>
      </trkpt>
      <trkpt lat="44.84125" lon="-0.50687">
        <ele>21.6</ele>
        <time>2018-05-31T12:03:42Z</time>
      </trkpt>
      <trkpt lat="44.84117" lon="-0.50694">
        <ele>21.5</ele>
        <time>2018-05-31T12:03:50Z</time>
      </trkpt>
      <trkpt lat="44.8411" lon="-0.507">
        <ele>22</ele>
        <time>2018-05-31T12:03:58Z</time>
      </trkpt>
      <trkpt lat="44.84103" lon="-0.50707">
        <ele>21.9</ele>
        <time>2018-05-31T12:04:05Z</time>
      </trkpt>
      <trkpt lat="44.84095" lon="-0.5071">
        <ele>22.3</ele>
        <time>2018-05-31T12:04:13Z</time>
      </trkpt>
      <trkpt lat="44.84088" lon="-0.50717">
        <ele>20.6</ele>
        <time>2018-05-31T12:04:20Z</time>
      </trkpt>
      <trkpt lat="44.84082" lon="-0.50724">
        <ele>20.3</ele>
        <time>2018-05-31T12:04:27Z</time>
      </trkpt>
      <trkpt lat="44.84074" lon="-0.50727">
        <ele>21.7</ele>
        <time>2018-05-31T12:04:33Z</time>
      </trkpt>
      <trkpt lat="44.84066" lon="-0.50731">
        <ele>21.1</ele>
        <time>2018-05-31T12:04:44Z</time>
      </trkpt>
      <trkpt lat="44.84058" lon="-0.50731">
        <ele>18.6</ele>
        <time>2018-05-31T12:04:51Z</time>
      </trkpt>
      <trkpt lat="44.8405" lon="-0.50734">
        <ele>17.6</ele>
        <time>2018-05-31T12:05:00Z</time>
      </trkpt>
      <trkpt lat="44.84042" lon="-0.50738">
        <ele>17</ele>
        <time>2018-05-31T12:05:06Z</time>
      </trkpt>
      <trkpt lat="44.84035" lon="-0.50733">
        <ele>15.9</ele>
        <time>2018-05-31T12:05:13Z</time>
      </trkpt>
      <trkpt lat="44.8403" lon="-0.50723">
        <ele>13.3</ele>
        <time>2018-05-31T12:05:21Z</time>
      </trkpt>
      <trkpt lat="44.84027" lon="-0.50712">
        <ele>14.7</ele>
        <time>2018-05-31T12:05:29Z</time>
      </trkpt>
      <trkpt lat="44.84021" lon="-0.50703">
        <ele>18.9</ele>
        <time>2018-05-31T12:05:35Z</time>
      </trkpt>
      <trkpt lat="44.84016" lon="-0.50692">
        <ele>21.1</ele>
        <time>2018-05-31T12:05:44Z</time>
      </trkpt>
      <trkpt lat="44.84017" lon="-0.50681">
        <ele>17.6</ele>
        <time>2018-05-31T12:05:51Z</time>
      </trkpt>
      <trkpt lat="44.84013" lon="-0.50673">
        <ele>11.4</ele>
        <time>2018-05-31T12:05:55Z</time>
      </trkpt>
      <trkpt lat="44.84006" lon="-0.50666">
        <ele>8.1</ele>
        <time>2018-05-31T12:06:00Z</time>
      </trkpt>
      <trkpt lat="44.84001" lon="-0.50657">
        <ele>6.5</ele>
        <time>2018-05-31T12:06:05Z</time>
      </trkpt>
      <trkpt lat="44.83996" lon="-0.5065">
        <ele>8.7</ele>
        <time>2018-05-31T12:06:12Z</time>
      </trkpt>
      <trkpt lat="44.8399" lon="-0.50641">
        <ele>8.1</ele>
        <time>2018-05-31T12:06:21Z</time>
      </trkpt>
      <trkpt lat="44.83982" lon="-0.50635">
        <ele>11.4</ele>
        <time>2018-05-31T12:06:27Z</time>
      </trkpt>
      <trkpt lat="44.83974" lon="-0.5063">
        <ele>14</ele>
        <time>2018-05-31T12:06:32Z</time>
      </trkpt>
      <trkpt lat="44.83967" lon="-0.50625">
        <ele>16.3</ele>
        <time>2018-05-31T12:06:37Z</time>
      </trkpt>
      <trkpt lat="44.8396" lon="-0.50619">
        <ele>18.8</ele>
        <time>2018-05-31T12:06:43Z</time>
      </trkpt>
      <trkpt lat="44.83952" lon="-0.50615">
        <ele>19.5</ele>
        <time>2018-05-31T12:06:50Z</time>
      </trkpt>
      <trkpt lat="44.83944" lon="-0.50613">
        <ele>17.6</ele>
        <time>2018-05-31T12:06:57Z</time>
      </trkpt>
      <trkpt lat="44.83936" lon="-0.50611">
        <ele>17.2</ele>
        <time>2018-05-31T12:07:04Z</time>
      </trkpt>
      <trkpt lat="44.83928" lon="-0.50612">
        <ele>14.6</ele>
        <time>2018-05-31T12:07:11Z</time>
      </trkpt>
      <trkpt lat="44.83919" lon="-0.50611">
        <ele>12.6</ele>
        <time>2018-05-31T12:07:19Z</time>
      </trkpt>
      <trkpt lat="44.83911" lon="-0.50612">
        <ele>14.2</ele>
        <time>2018-05-31T12:07:26Z</time>
      </trkpt>
      <trkpt lat="44.83904" lon="-0.50618">
        <ele>9.9</ele>
        <time>2018-05-31T12:07:32Z</time>
      </trkpt>
      <trkpt lat="44.83895" lon="-0.50621">
        <ele>9.3</ele>
        <time>2018-05-31T12:07:38Z</time>
      </trkpt>
      <trkpt lat="44.83887" lon="-0.5062">
        <ele>10.4</ele>
        <time>2018-05-31T12:07:44Z</time>
      </trkpt>
      <trkpt lat="44.83879" lon="-0.50619">
        <ele>13.1</ele>
        <time>2018-05-31T12:07:50Z</time>
      </trkpt>
      <trkpt lat="44.83871" lon="-0.50614">
        <ele>14.6</ele>
        <time>2018-05-31T12:07:57Z</time>
      </trkpt>
      <trkpt lat="44.83863" lon="-0.50609">
        <ele>13.6</ele>
        <time>2018-05-31T12:08:03Z</time>
      </trkpt>
      <trkpt lat="44.83855" lon="-0.50605">
        <ele>10</ele>
        <time>2018-05-31T12:08:12Z</time>
      </trkpt>
      <trkpt lat="44.83848" lon="-0.50599">
        <ele>13.4</ele>
        <time>2018-05-31T12:08:19Z</time>
      </trkpt>
      <trkpt lat="44.83841" lon="-0.50594">
        <ele>14.1</ele>
        <time>2018-05-31T12:08:24Z</time>
      </trkpt>
      <trkpt lat="44.83833" lon="-0.50589">
        <ele>14.6</ele>
        <time>2018-05-31T12:08:31Z</time>
      </trkpt>
      <trkpt lat="44.83825" lon="-0.50586">
        <ele>13.5</ele>
        <time>2018-05-31T12:08:37Z</time>
      </trkpt>
      <trkpt lat="44.83817" lon="-0.5058">
        <ele>14</ele>
        <time>2018-05-31T12:08:47Z</time>
      </trkpt>
      <trkpt lat="44.8381" lon="-0.50575">
        <ele>16.8</ele>
        <time>2018-05-31T12:08:51Z</time>
      </trkpt>
      <trkpt lat="44.83802" lon="-0.50571">
        <ele>19.1</ele>
        <time>2018-05-31T12:08:57Z</time>
      </trkpt>
      <trkpt lat="44.83794" lon="-0.50568">
        <ele>19.6</ele>
        <time>2018-05-31T12:09:03Z</time>
      </trkpt>
      <trkpt lat="44.83785" lon="-0.50568">
        <ele>19.5</ele>
        <time>2018-05-31T12:09:11Z</time>
      </trkpt>
      <trkpt lat="44.83777" lon="-0.50571">
        <ele>17.6</ele>
        <time>2018-05-31T12:09:17Z</time>
      </trkpt>
      <trkpt lat="44.83769" lon="-0.50571">
        <ele>15.7</ele>
        <time>2018-05-31T12:09:24Z</time>
      </trkpt>
      <trkpt lat="44.83761" lon="-0.50569">
        <ele>16.8</ele>
        <time>2018-05-31T12:09:30Z</time>
      </trkpt>
      <trkpt lat="44.83752" lon="-0.50567">
        <ele>14.5</ele>
        <time>2018-05-31T12:09:37Z</time>
      </trkpt>
      <trkpt lat="44.83744" lon="-0.50567">
        <ele>14.9</ele>
        <time>2018-05-31T12:09:43Z</time>
      </trkpt>
      <trkpt lat="44.83736" lon="-0.50567">
        <ele>15.4</ele>
        <time>2018-05-31T12:09:49Z</time>
      </trkpt>
      <trkpt lat="44.83727" lon="-0.50568">
        <ele>17.5</ele>
        <time>2018-05-31T12:09:56Z</time>
      </trkpt>
      <trkpt lat="44.83719" lon="-0.50567">
        <ele>18.5</ele>
        <time>2018-05-31T12:10:02Z</time>
      </trkpt>
      <trkpt lat="44.8371" lon="-0.50569">
        <ele>20</ele>
        <time>2018-05-31T12:10:08Z</time>
      </trkpt>
      <trkpt lat="44.83702" lon="-0.50568">
        <ele>21.3</ele>
        <time>2018-05-31T12:10:14Z</time>
      </trkpt>
      <trkpt lat="44.83693" lon="-0.50568">
        <ele>19.6</ele>
        <time>2018-05-31T12:10:21Z</time>
      </trkpt>
      <trkpt lat="44.83685" lon="-0.50571">
        <ele>18.2</ele>
        <time>2018-05-31T12:10:33Z</time>
      </trkpt>
      <trkpt lat="44.83677" lon="-0.50571">
        <ele>18.3</ele>
        <time>2018-05-31T12:10:41Z</time>
      </trkpt>
      <trkpt lat="44.8367" lon="-0.50577">
        <ele>21.4</ele>
        <time>2018-05-31T12:11:55Z</time>
      </trkpt>
      <trkpt lat="44.83661" lon="-0.50578">
        <ele>20.8</ele>
        <time>2018-05-31T12:12:03Z</time>
      </trkpt>
      <trkpt lat="44.83652" lon="-0.50579">
        <ele>18.5</ele>
        <time>2018-05-31T12:12:11Z</time>
      </trkpt>
      <trkpt lat="44.83644" lon="-0.50582">
        <ele>16</ele>
        <time>2018-05-31T12:12:18Z</time>
      </trkpt>
      <trkpt lat="44.83637" lon="-0.50576">
        <ele>11.2</ele>
        <time>2018-05-31T12:12:27Z</time>
      </trkpt>
      <trkpt lat="44.83636" lon="-0.50564">
        <ele>6.8</ele>
        <time>2018-05-31T12:12:37Z</time>
      </trkpt>
      <trkpt lat="44.83634" lon="-0.50552">
        <ele>2.1</ele>
        <time>2018-05-31T12:12:46Z</time>
      </trkpt>
      <trkpt lat="44.83634" lon="-0.50541">
        <ele>0.9</ele>
        <time>2018-05-31T12:12:53Z</time>
      </trkpt>
      <trkpt lat="44.8363" lon="-0.5053">
        <ele>2.3</ele>
        <time>2018-05-31T12:13:00Z</time>
      </trkpt>
      <trkpt lat="44.83629" lon="-0.50518">
        <ele>0.2</ele>
        <time>2018-05-31T12:13:08Z</time>
      </trkpt>
      <trkpt lat="44.8363" lon="-0.50507">
        <ele>-1.4</ele>
        <time>2018-05-31T12:13:15Z</time>
      </trkpt>
      <trkpt lat="44.8363" lon="-0.50495">
        <ele>-0.3</ele>
        <time>2018-05-31T12:13:21Z</time>
      </trkpt>
      <trkpt lat="44.83631" lon="-0.50483">
        <ele>-0.2</ele>
        <time>2018-05-31T12:13:28Z</time>
      </trkpt>
      <trkpt lat="44.83632" lon="-0.50472">
        <ele>1.8</ele>
        <time>2018-05-31T12:13:32Z</time>
      </trkpt>
      <trkpt lat="44.83633" lon="-0.5046">
        <ele>4.3</ele>
        <time>2018-05-31T12:13:37Z</time>
      </trkpt>
      <trkpt lat="44.83634" lon="-0.50448">
        <ele>5.6</ele>
        <time>2018-05-31T12:13:46Z</time>
      </trkpt>
      <trkpt lat="44.83633" lon="-0.50437">
        <ele>10</ele>
        <time>2018-05-31T12:13:53Z</time>
      </trkpt>
      <trkpt lat="44.83631" lon="-0.50425">
        <ele>12.7</ele>
        <time>2018-05-31T12:14:00Z</time>
      </trkpt>
      <trkpt lat="44.83636" lon="-0.50416">
        <ele>8.4</ele>
        <time>2018-05-31T12:14:06Z</time>
      </trkpt>
      <trkpt lat="44.83638" lon="-0.50403">
        <ele>10.4</ele>
        <time>2018-05-31T12:14:11Z</time>
      </trkpt>
      <trkpt lat="44.83638" lon="-0.50391">
        <ele>9.4</ele>
        <time>2018-05-31T12:14:17Z</time>
      </trkpt>
      <trkpt lat="44.83638" lon="-0.5038">
        <ele>9.7</ele>
        <time>2018-05-31T12:14:23Z</time>
      </trkpt>
      <trkpt lat="44.83637" lon="-0.50368">
        <ele>10.2</ele>
        <time>2018-05-31T12:14:29Z</time>
      </trkpt>
      <trkpt lat="44.83635" lon="-0.50357">
        <ele>9.8</ele>
        <time>2018-05-31T12:14:35Z</time>
      </trkpt>
      <trkpt lat="44.83636" lon="-0.50345">
        <ele>9.9</ele>
        <time>2018-05-31T12:14:42Z</time>
      </trkpt>
      <trkpt lat="44.83638" lon="-0.50333">
        <ele>8.6</ele>
        <time>2018-05-31T12:14:50Z</time>
      </trkpt>
      <trkpt lat="44.83638" lon="-0.50321">
        <ele>7.7</ele>
        <time>2018-05-31T12:14:58Z</time>
      </trkpt>
      <trkpt lat="44.83637" lon="-0.50309">
        <ele>8.4</ele>
        <time>2018-05-31T12:15:05Z</time>
      </trkpt>
      <trkpt lat="44.83635" lon="-0.50298">
        <ele>8.6</ele>
        <time>2018-05-31T12:15:12Z</time>
      </trkpt>
      <trkpt lat="44.83635" lon="-0.50285">
        <ele>9.3</ele>
        <time>2018-05-31T12:15:18Z</time>
      </trkpt>
      <trkpt lat="44.83637" lon="-0.50274">
        <ele>9.6</ele>
        <time>2018-05-31T12:15:24Z</time>
      </trkpt>
      <trkpt lat="44.8364" lon="-0.50262">
        <ele>7.7</ele>
        <time>2018-05-31T12:15:32Z</time>
      </trkpt>
      <trkpt lat="44.83643" lon="-0.50252">
        <ele>7.9</ele>
        <time>2018-05-31T12:15:39Z</time>
      </trkpt>
      <trkpt lat="44.83646" lon="-0.5024">
        <ele>6.7</ele>
        <time>2018-05-31T12:15:48Z</time>
      </trkpt>
      <trkpt lat="44.83648" lon="-0.50228">
        <ele>6.9</ele>
        <time>2018-05-31T12:15:56Z</time>
      </trkpt>
      <trkpt lat="44.83646" lon="-0.50216">
        <ele>8.3</ele>
        <time>2018-05-31T12:16:03Z</time>
      </trkpt>
      <trkpt lat="44.83645" lon="-0.50204">
        <ele>10</ele>
        <time>2018-05-31T12:16:09Z</time>
      </trkpt>
      <trkpt lat="44.83642" lon="-0.50194">
        <ele>11.1</ele>
        <time>2018-05-31T12:16:15Z</time>
      </trkpt>
      <trkpt lat="44.83637" lon="-0.50185">
        <ele>13</ele>
        <time>2018-05-31T12:16:20Z</time>
      </trkpt>
      <trkpt lat="44.83631" lon="-0.50176">
        <ele>13.9</ele>
        <time>2018-05-31T12:16:26Z</time>
      </trkpt>
      <trkpt lat="44.83626" lon="-0.50167">
        <ele>16.5</ele>
        <time>2018-05-31T12:16:32Z</time>
      </trkpt>
      <trkpt lat="44.8362" lon="-0.50158">
        <ele>16.2</ele>
        <time>2018-05-31T12:16:39Z</time>
      </trkpt>
      <trkpt lat="44.83614" lon="-0.50149">
        <ele>16.9</ele>
        <time>2018-05-31T12:16:45Z</time>
      </trkpt>
      <trkpt lat="44.83609" lon="-0.5014">
        <ele>17.5</ele>
        <time>2018-05-31T12:16:51Z</time>
      </trkpt>
      <trkpt lat="44.83604" lon="-0.50131">
        <ele>16.7</ele>
        <time>2018-05-31T12:16:58Z</time>
      </trkpt>
      <trkpt lat="44.83595" lon="-0.50131">
        <ele>17.3</ele>
        <time>2018-05-31T12:17:11Z</time>
      </trkpt>
      <trkpt lat="44.8359" lon="-0.50139">
        <ele>18.1</ele>
        <time>2018-05-31T12:17:18Z</time>
      </trkpt>
      <trkpt lat="44.83584" lon="-0.50146">
        <ele>18.2</ele>
        <time>2018-05-31T12:17:25Z</time>
      </trkpt>
      <trkpt lat="44.83577" lon="-0.50152">
        <ele>19.2</ele>
        <time>2018-05-31T12:17:31Z</time>
      </trkpt>
      <trkpt lat="44.8357" lon="-0.5016">
        <ele>18.1</ele>
        <time>2018-05-31T12:17:38Z</time>
      </trkpt>
      <trkpt lat="44.83564" lon="-0.50168">
        <ele>17.2</ele>
        <time>2018-05-31T12:17:45Z</time>
      </trkpt>
      <trkpt lat="44.83557" lon="-0.50174">
        <ele>15.9</ele>
        <time>2018-05-31T12:17:55Z</time>
      </trkpt>
      <trkpt lat="44.83548" lon="-0.50176">
        <ele>16.4</ele>
        <time>2018-05-31T12:18:02Z</time>
      </trkpt>
      <trkpt lat="44.8354" lon="-0.50179">
        <ele>16.7</ele>
        <time>2018-05-31T12:18:10Z</time>
      </trkpt>
      <trkpt lat="44.83531" lon="-0.50179">
        <ele>15.8</ele>
        <time>2018-05-31T12:18:16Z</time>
      </trkpt>
      <trkpt lat="44.83525" lon="-0.50184">
        <ele>15.9</ele>
        <time>2018-05-31T12:18:22Z</time>
      </trkpt>
      <trkpt lat="44.83518" lon="-0.50191">
        <ele>18</ele>
        <time>2018-05-31T12:18:28Z</time>
      </trkpt>
      <trkpt lat="44.83512" lon="-0.50198">
        <ele>18.1</ele>
        <time>2018-05-31T12:18:34Z</time>
      </trkpt>
      <trkpt lat="44.83504" lon="-0.50204">
        <ele>20.6</ele>
        <time>2018-05-31T12:18:40Z</time>
      </trkpt>
      <trkpt lat="44.83497" lon="-0.50211">
        <ele>22.4</ele>
        <time>2018-05-31T12:18:46Z</time>
      </trkpt>
      <trkpt lat="44.8349" lon="-0.50218">
        <ele>24.2</ele>
        <time>2018-05-31T12:18:52Z</time>
      </trkpt>
      <trkpt lat="44.83483" lon="-0.50224">
        <ele>21.9</ele>
        <time>2018-05-31T12:19:05Z</time>
      </trkpt>
      <trkpt lat="44.83476" lon="-0.50231">
        <ele>20.8</ele>
        <time>2018-05-31T12:19:13Z</time>
      </trkpt>
      <trkpt lat="44.8347" lon="-0.50237">
        <ele>20.1</ele>
        <time>2018-05-31T12:19:20Z</time>
      </trkpt>
      <trkpt lat="44.83463" lon="-0.50244">
        <ele>19.2</ele>
        <time>2018-05-31T12:19:27Z</time>
      </trkpt>
      <trkpt lat="44.83456" lon="-0.50252">
        <ele>16.3</ele>
        <time>2018-05-31T12:19:36Z</time>
      </trkpt>
      <trkpt lat="44.8345" lon="-0.50258">
        <ele>15.7</ele>
        <time>2018-05-31T12:19:42Z</time>
      </trkpt>
      <trkpt lat="44.83444" lon="-0.50266">
        <ele>15.6</ele>
        <time>2018-05-31T12:19:48Z</time>
      </trkpt>
      <trkpt lat="44.83437" lon="-0.50273">
        <ele>17.9</ele>
        <time>2018-05-31T12:19:55Z</time>
      </trkpt>
      <trkpt lat="44.8343" lon="-0.50279">
        <ele>19.2</ele>
        <time>2018-05-31T12:20:01Z</time>
      </trkpt>
      <trkpt lat="44.83423" lon="-0.50284">
        <ele>19</ele>
        <time>2018-05-31T12:20:07Z</time>
      </trkpt>
      <trkpt lat="44.83416" lon="-0.50292">
        <ele>20.4</ele>
        <time>2018-05-31T12:20:14Z</time>
      </trkpt>
      <trkpt lat="44.8341" lon="-0.50299">
        <ele>21.3</ele>
        <time>2018-05-31T12:20:20Z</time>
      </trkpt>
      <trkpt lat="44.83404" lon="-0.50305">
        <ele>23.2</ele>
        <time>2018-05-31T12:20:26Z</time>
      </trkpt>
      <trkpt lat="44.83397" lon="-0.50311">
        <ele>24.9</ele>
        <time>2018-05-31T12:20:33Z</time>
      </trkpt>
      <trkpt lat="44.83389" lon="-0.50316">
        <ele>26.4</ele>
        <time>2018-05-31T12:20:38Z</time>
      </trkpt>
      <trkpt lat="44.83382" lon="-0.50324">
        <ele>25.5</ele>
        <time>2018-05-31T12:20:45Z</time>
      </trkpt>
      <trkpt lat="44.83376" lon="-0.50331">
        <ele>23.8</ele>
        <time>2018-05-31T12:20:52Z</time>
      </trkpt>
      <trkpt lat="44.8337" lon="-0.50339">
        <ele>22.2</ele>
        <time>2018-05-31T12:20:59Z</time>
      </trkpt>
      <trkpt lat="44.83363" lon="-0.50346">
        <ele>22</ele>
        <time>2018-05-31T12:21:06Z</time>
      </trkpt>
      <trkpt lat="44.83356" lon="-0.50353">
        <ele>22</ele>
        <time>2018-05-31T12:21:14Z</time>
      </trkpt>
      <trkpt lat="44.8335" lon="-0.50362">
        <ele>21.5</ele>
        <time>2018-05-31T12:21:22Z</time>
      </trkpt>
      <trkpt lat="44.83343" lon="-0.50369">
        <ele>20.8</ele>
        <time>2018-05-31T12:21:31Z</time>
      </trkpt>
      <trkpt lat="44.83345" lon="-0.50381">
        <ele>16.9</ele>
        <time>2018-05-31T12:21:41Z</time>
      </trkpt>
      <trkpt lat="44.83349" lon="-0.50391">
        <ele>16.4</ele>
        <time>2018-05-31T12:21:47Z</time>
      </trkpt>
      <trkpt lat="44.83353" lon="-0.50401">
        <ele>16.3</ele>
        <time>2018-05-31T12:21:54Z</time>
      </trkpt>
      <trkpt lat="44.83358" lon="-0.50409">
        <ele>17</ele>
        <time>2018-05-31T12:22:01Z</time>
      </trkpt>
      <trkpt lat="44.83362" lon="-0.50419">
        <ele>17</ele>
        <time>2018-05-31T12:22:08Z</time>
      </trkpt>
      <trkpt lat="44.83365" lon="-0.50429">
        <ele>18.3</ele>
        <time>2018-05-31T12:22:15Z</time>
      </trkpt>
      <trkpt lat="44.83369" lon="-0.50438">
        <ele>20.4</ele>
        <time>2018-05-31T12:22:22Z</time>
      </trkpt>
      <trkpt lat="44.83372" lon="-0.50449">
        <ele>19.3</ele>
        <time>2018-05-31T12:22:31Z</time>
      </trkpt>
      <trkpt lat="44.83377" lon="-0.50461">
        <ele>16.8</ele>
        <time>2018-05-31T12:22:48Z</time>
      </trkpt>
      <trkpt lat="44.83374" lon="-0.50453">
        <ele>22.7</ele>
        <time>2018-05-31T12:23:15Z</time>
      </trkpt>
    </trkseg>
  </trk>
</gpx>